<?xml version="1.0" encoding="utf-8"?>
<gpx xmlns:xsi="http://www.w3.org/2001/XMLSchema-instance" xmlns:xsd="http://www.w3.org/2001/XMLSchema" version="1.1" creator="Shapelink.com" xmlns="http://www.topografix.com/GPX/1/1" xmlns:gpxtpx="http://www.garmin.com/xmlschemas/TrackPointExtension/v1">
  <metadata>
    <name>Löpning 4.27 km, 2017-12-25</name>
    <desc></desc>
    <author><name>Bengt-Åke Forslund</name></author> 
    <time>2017-12-25T13:07:45Z</time>
  </metadata>
  <trk>
    <name>Löpning 4.27 km, 2017-12-25</name>
    <trkseg>
      <trkpt lat="62.635995607942" lon="17.968109045068">
        <ele>61.6</ele>
        <time>2017-12-25T13:07:45Z</time>
      </trkpt>
      <trkpt lat="62.636009773353" lon="17.968141315383">
        <ele>61.6</ele>
        <time>2017-12-25T13:07:46Z</time>
      </trkpt>
      <trkpt lat="62.636022513841" lon="17.96817257987">
        <ele>61.6</ele>
        <time>2017-12-25T13:07:47Z</time>
      </trkpt>
      <trkpt lat="62.636035841062" lon="17.968212561533">
        <ele>61.6</ele>
        <time>2017-12-25T13:07:48Z</time>
      </trkpt>
      <trkpt lat="62.636055035613" lon="17.968277185982">
        <ele>61.6</ele>
        <time>2017-12-25T13:07:49Z</time>
      </trkpt>
      <trkpt lat="62.636073308155" lon="17.968333763807">
        <ele>61.4</ele>
        <time>2017-12-25T13:07:50Z</time>
      </trkpt>
      <trkpt lat="62.636087725023" lon="17.968370057434">
        <ele>61.8</ele>
        <time>2017-12-25T13:07:51Z</time>
      </trkpt>
      <trkpt lat="62.636101638977" lon="17.968424958879">
        <ele>61.8</ele>
        <time>2017-12-25T13:07:52Z</time>
      </trkpt>
      <trkpt lat="62.636122593727" lon="17.968461420144">
        <ele>62</ele>
        <time>2017-12-25T13:07:53Z</time>
      </trkpt>
      <trkpt lat="62.636146565961" lon="17.968479608867">
        <ele>62</ele>
        <time>2017-12-25T13:07:54Z</time>
      </trkpt>
      <trkpt lat="62.636167520711" lon="17.968489918604">
        <ele>62.2</ele>
        <time>2017-12-25T13:07:55Z</time>
      </trkpt>
      <trkpt lat="62.6361952648" lon="17.968513471743">
        <ele>62.4</ele>
        <time>2017-12-25T13:07:56Z</time>
      </trkpt>
      <trkpt lat="62.636220494319" lon="17.968515734856">
        <ele>62.4</ele>
        <time>2017-12-25T13:07:57Z</time>
      </trkpt>
      <trkpt lat="62.636248489865" lon="17.968541467289">
        <ele>62.4</ele>
        <time>2017-12-25T13:07:58Z</time>
      </trkpt>
      <trkpt lat="62.636280676361" lon="17.968570133387">
        <ele>62.4</ele>
        <time>2017-12-25T13:07:59Z</time>
      </trkpt>
      <trkpt lat="62.63630674407" lon="17.968595446725">
        <ele>62.4</ele>
        <time>2017-12-25T13:08:00Z</time>
      </trkpt>
      <trkpt lat="62.63633356615" lon="17.968598799485">
        <ele>62.2</ele>
        <time>2017-12-25T13:08:01Z</time>
      </trkpt>
      <trkpt lat="62.636365752646" lon="17.968632494723">
        <ele>62.4</ele>
        <time>2017-12-25T13:08:02Z</time>
      </trkpt>
      <trkpt lat="62.636392910002" lon="17.968659065346">
        <ele>62.4</ele>
        <time>2017-12-25T13:08:03Z</time>
      </trkpt>
      <trkpt lat="62.636413278019" lon="17.968692341489">
        <ele>62.4</ele>
        <time>2017-12-25T13:08:04Z</time>
      </trkpt>
      <trkpt lat="62.636436495882" lon="17.968751936798">
        <ele>62.4</ele>
        <time>2017-12-25T13:08:05Z</time>
      </trkpt>
      <trkpt lat="62.636458875555" lon="17.968803150207">
        <ele>62.4</ele>
        <time>2017-12-25T13:08:06Z</time>
      </trkpt>
      <trkpt lat="62.636477567192" lon="17.96885151377">
        <ele>62.4</ele>
        <time>2017-12-25T13:08:07Z</time>
      </trkpt>
      <trkpt lat="62.6364970132" lon="17.968906247577">
        <ele>62.4</ele>
        <time>2017-12-25T13:08:08Z</time>
      </trkpt>
      <trkpt lat="62.636515872475" lon="17.968938769349">
        <ele>62.4</ele>
        <time>2017-12-25T13:08:09Z</time>
      </trkpt>
      <trkpt lat="62.636532887732" lon="17.968996269183">
        <ele>62.4</ele>
        <time>2017-12-25T13:08:10Z</time>
      </trkpt>
      <trkpt lat="62.636554429215" lon="17.969043626918">
        <ele>62.4</ele>
        <time>2017-12-25T13:08:11Z</time>
      </trkpt>
      <trkpt lat="62.636572701757" lon="17.969096013793">
        <ele>62.4</ele>
        <time>2017-12-25T13:08:12Z</time>
      </trkpt>
      <trkpt lat="62.636591644851" lon="17.969145969917">
        <ele>62.6</ele>
        <time>2017-12-25T13:08:13Z</time>
      </trkpt>
      <trkpt lat="62.636605223529" lon="17.969194668756">
        <ele>62.6</ele>
        <time>2017-12-25T13:08:14Z</time>
      </trkpt>
      <trkpt lat="62.63662022713" lon="17.96925803592">
        <ele>62.6</ele>
        <time>2017-12-25T13:08:15Z</time>
      </trkpt>
      <trkpt lat="62.636634811636" lon="17.969307153854">
        <ele>62.8</ele>
        <time>2017-12-25T13:08:16Z</time>
      </trkpt>
      <trkpt lat="62.636648809409" lon="17.969385943714">
        <ele>62.8</ele>
        <time>2017-12-25T13:08:17Z</time>
      </trkpt>
      <trkpt lat="62.636666662856" lon="17.969446293394">
        <ele>62.8</ele>
        <time>2017-12-25T13:08:18Z</time>
      </trkpt>
      <trkpt lat="62.636680995905" lon="17.969503038857">
        <ele>62.8</ele>
        <time>2017-12-25T13:08:19Z</time>
      </trkpt>
      <trkpt lat="62.636695915687" lon="17.969553330257">
        <ele>62.8</ele>
        <time>2017-12-25T13:08:20Z</time>
      </trkpt>
      <trkpt lat="62.636712344211" lon="17.969599765983">
        <ele>62.8</ele>
        <time>2017-12-25T13:08:21Z</time>
      </trkpt>
      <trkpt lat="62.636725336156" lon="17.969664055156">
        <ele>62.8</ele>
        <time>2017-12-25T13:08:22Z</time>
      </trkpt>
      <trkpt lat="62.636734556246" lon="17.969720884438">
        <ele>63</ele>
        <time>2017-12-25T13:08:23Z</time>
      </trkpt>
      <trkpt lat="62.636748386381" lon="17.969773103675">
        <ele>63</ele>
        <time>2017-12-25T13:08:24Z</time>
      </trkpt>
      <trkpt lat="62.636764311991" lon="17.969828172758">
        <ele>63</ele>
        <time>2017-12-25T13:08:25Z</time>
      </trkpt>
      <trkpt lat="62.636780405239" lon="17.969866729498">
        <ele>63</ele>
        <time>2017-12-25T13:08:26Z</time>
      </trkpt>
      <trkpt lat="62.636799683609" lon="17.969933952336">
        <ele>63</ele>
        <time>2017-12-25T13:08:27Z</time>
      </trkpt>
      <trkpt lat="62.636816950323" lon="17.969965049185">
        <ele>63.2</ele>
        <time>2017-12-25T13:08:28Z</time>
      </trkpt>
      <trkpt lat="62.636840922557" lon="17.970015675861">
        <ele>63.2</ele>
        <time>2017-12-25T13:08:29Z</time>
      </trkpt>
      <trkpt lat="62.636860033289" lon="17.970041408294">
        <ele>63.4</ele>
        <time>2017-12-25T13:08:30Z</time>
      </trkpt>
      <trkpt lat="62.636883837885" lon="17.970069236202">
        <ele>63.4</ele>
        <time>2017-12-25T13:08:31Z</time>
      </trkpt>
      <trkpt lat="62.636916443476" lon="17.970115169014">
        <ele>63.4</ele>
        <time>2017-12-25T13:08:32Z</time>
      </trkpt>
      <trkpt lat="62.63694041571" lon="17.970134028289">
        <ele>63.4</ele>
        <time>2017-12-25T13:08:33Z</time>
      </trkpt>
      <trkpt lat="62.636973608034" lon="17.970165628052">
        <ele>63.4</ele>
        <time>2017-12-25T13:08:34Z</time>
      </trkpt>
      <trkpt lat="62.637005291616" lon="17.970162191473">
        <ele>63.4</ele>
        <time>2017-12-25T13:08:35Z</time>
      </trkpt>
      <trkpt lat="62.637041920519" lon="17.970178871454">
        <ele>63.2</ele>
        <time>2017-12-25T13:08:36Z</time>
      </trkpt>
      <trkpt lat="62.637079974345" lon="17.970170741011">
        <ele>63.2</ele>
        <time>2017-12-25T13:08:37Z</time>
      </trkpt>
      <trkpt lat="62.637119620732" lon="17.970166717699">
        <ele>63</ele>
        <time>2017-12-25T13:08:38Z</time>
      </trkpt>
      <trkpt lat="62.637158177472" lon="17.970155821229">
        <ele>62.8</ele>
        <time>2017-12-25T13:08:39Z</time>
      </trkpt>
      <trkpt lat="62.637194471099" lon="17.970142913103">
        <ele>62.4</ele>
        <time>2017-12-25T13:08:40Z</time>
      </trkpt>
      <trkpt lat="62.63723713497" lon="17.970121874534">
        <ele>62</ele>
        <time>2017-12-25T13:08:41Z</time>
      </trkpt>
      <trkpt lat="62.637283486877" lon="17.970096309739">
        <ele>61.6</ele>
        <time>2017-12-25T13:08:42Z</time>
      </trkpt>
      <trkpt lat="62.637326988938" lon="17.970072086048">
        <ele>61</ele>
        <time>2017-12-25T13:08:43Z</time>
      </trkpt>
      <trkpt lat="62.637370826275" lon="17.970050460746">
        <ele>60.8</ele>
        <time>2017-12-25T13:08:44Z</time>
      </trkpt>
      <trkpt lat="62.637411646128" lon="17.970031769109">
        <ele>60.4</ele>
        <time>2017-12-25T13:08:45Z</time>
      </trkpt>
      <trkpt lat="62.637455986379" lon="17.970024812132">
        <ele>60</ele>
        <time>2017-12-25T13:08:46Z</time>
      </trkpt>
      <trkpt lat="62.637503176476" lon="17.970034032222">
        <ele>59.8</ele>
        <time>2017-12-25T13:08:47Z</time>
      </trkpt>
      <trkpt lat="62.637543241958" lon="17.970059680836">
        <ele>59.6</ele>
        <time>2017-12-25T13:08:48Z</time>
      </trkpt>
      <trkpt lat="62.63758330744" lon="17.970094633359">
        <ele>59.4</ele>
        <time>2017-12-25T13:08:49Z</time>
      </trkpt>
      <trkpt lat="62.637617086497" lon="17.970126987493">
        <ele>59.6</ele>
        <time>2017-12-25T13:08:50Z</time>
      </trkpt>
      <trkpt lat="62.637651368468" lon="17.970198988014">
        <ele>59.6</ele>
        <time>2017-12-25T13:08:51Z</time>
      </trkpt>
      <trkpt lat="62.637679028738" lon="17.970258499504">
        <ele>59.8</ele>
        <time>2017-12-25T13:08:52Z</time>
      </trkpt>
      <trkpt lat="62.637708365388" lon="17.970315161148">
        <ele>60</ele>
        <time>2017-12-25T13:08:53Z</time>
      </trkpt>
      <trkpt lat="62.6377375344" lon="17.970380120873">
        <ele>60.2</ele>
        <time>2017-12-25T13:08:54Z</time>
      </trkpt>
      <trkpt lat="62.637758070055" lon="17.970451283204">
        <ele>60.4</ele>
        <time>2017-12-25T13:08:55Z</time>
      </trkpt>
      <trkpt lat="62.63777776752" lon="17.970524960105">
        <ele>60.4</ele>
        <time>2017-12-25T13:08:56Z</time>
      </trkpt>
      <trkpt lat="62.637803332315" lon="17.970593524047">
        <ele>60.6</ele>
        <time>2017-12-25T13:08:57Z</time>
      </trkpt>
      <trkpt lat="62.637817413907" lon="17.970667117129">
        <ele>60.6</ele>
        <time>2017-12-25T13:08:58Z</time>
      </trkpt>
      <trkpt lat="62.637834429164" lon="17.970748924473">
        <ele>60.6</ele>
        <time>2017-12-25T13:08:59Z</time>
      </trkpt>
      <trkpt lat="62.637850773869" lon="17.970804999384">
        <ele>60.8</ele>
        <time>2017-12-25T13:09:00Z</time>
      </trkpt>
      <trkpt lat="62.63786158652" lon="17.970887561099">
        <ele>60.8</ele>
        <time>2017-12-25T13:09:01Z</time>
      </trkpt>
      <trkpt lat="62.637875751931" lon="17.970961489457">
        <ele>60.8</ele>
        <time>2017-12-25T13:09:02Z</time>
      </trkpt>
      <trkpt lat="62.637885726392" lon="17.971006919355">
        <ele>60.8</ele>
        <time>2017-12-25T13:09:03Z</time>
      </trkpt>
      <trkpt lat="62.63789511412" lon="17.9710869665">
        <ele>60.8</ele>
        <time>2017-12-25T13:09:04Z</time>
      </trkpt>
      <trkpt lat="62.637908776617" lon="17.971149663112">
        <ele>60.8</ele>
        <time>2017-12-25T13:09:05Z</time>
      </trkpt>
      <trkpt lat="62.637913805757" lon="17.971224094384">
        <ele>60.8</ele>
        <time>2017-12-25T13:09:06Z</time>
      </trkpt>
      <trkpt lat="62.637925205141" lon="17.971297100733">
        <ele>61</ele>
        <time>2017-12-25T13:09:07Z</time>
      </trkpt>
      <trkpt lat="62.637936269249" lon="17.9713468054">
        <ele>61</ele>
        <time>2017-12-25T13:09:08Z</time>
      </trkpt>
      <trkpt lat="62.637944902606" lon="17.971416542808">
        <ele>61.2</ele>
        <time>2017-12-25T13:09:09Z</time>
      </trkpt>
      <trkpt lat="62.637955212343" lon="17.971467923855">
        <ele>61.2</ele>
        <time>2017-12-25T13:09:10Z</time>
      </trkpt>
      <trkpt lat="62.637962001682" lon="17.97153707453">
        <ele>61.2</ele>
        <time>2017-12-25T13:09:11Z</time>
      </trkpt>
      <trkpt lat="62.63797474217" lon="17.971605722291">
        <ele>61.4</ele>
        <time>2017-12-25T13:09:12Z</time>
      </trkpt>
      <trkpt lat="62.63798312407" lon="17.971654169673">
        <ele>61.4</ele>
        <time>2017-12-25T13:09:13Z</time>
      </trkpt>
      <trkpt lat="62.63798647683" lon="17.971736815207">
        <ele>61.6</ele>
        <time>2017-12-25T13:09:14Z</time>
      </trkpt>
      <trkpt lat="62.637994607273" lon="17.9717910461">
        <ele>61.6</ele>
        <time>2017-12-25T13:09:15Z</time>
      </trkpt>
      <trkpt lat="62.637994942549" lon="17.971873523996">
        <ele>61.6</ele>
        <time>2017-12-25T13:09:16Z</time>
      </trkpt>
      <trkpt lat="62.63800407882" lon="17.971931359106">
        <ele>61.6</ele>
        <time>2017-12-25T13:09:17Z</time>
      </trkpt>
      <trkpt lat="62.638000977517" lon="17.97200143179">
        <ele>61.6</ele>
        <time>2017-12-25T13:09:18Z</time>
      </trkpt>
      <trkpt lat="62.638009024141" lon="17.972069073723">
        <ele>61.6</ele>
        <time>2017-12-25T13:09:19Z</time>
      </trkpt>
      <trkpt lat="62.638005168467" lon="17.972121209141">
        <ele>62</ele>
        <time>2017-12-25T13:09:20Z</time>
      </trkpt>
      <trkpt lat="62.638011538711" lon="17.972200250458">
        <ele>62</ele>
        <time>2017-12-25T13:09:21Z</time>
      </trkpt>
      <trkpt lat="62.638006341933" lon="17.972249955125">
        <ele>62.2</ele>
        <time>2017-12-25T13:09:22Z</time>
      </trkpt>
      <trkpt lat="62.638013718005" lon="17.972320363085">
        <ele>62.2</ele>
        <time>2017-12-25T13:09:23Z</time>
      </trkpt>
      <trkpt lat="62.638018411869" lon="17.972372833779">
        <ele>62.4</ele>
        <time>2017-12-25T13:09:24Z</time>
      </trkpt>
      <trkpt lat="62.638023273371" lon="17.972431758536">
        <ele>62.2</ele>
        <time>2017-12-25T13:09:25Z</time>
      </trkpt>
      <trkpt lat="62.638036684411" lon="17.972481547022">
        <ele>62.4</ele>
        <time>2017-12-25T13:09:26Z</time>
      </trkpt>
      <trkpt lat="62.638039785714" lon="17.972546087652">
        <ele>62.4</ele>
        <time>2017-12-25T13:09:27Z</time>
      </trkpt>
      <trkpt lat="62.638046742691" lon="17.972602497839">
        <ele>62.6</ele>
        <time>2017-12-25T13:09:28Z</time>
      </trkpt>
      <trkpt lat="62.638052358564" lon="17.972648598289">
        <ele>62.6</ele>
        <time>2017-12-25T13:09:29Z</time>
      </trkpt>
      <trkpt lat="62.638055459867" lon="17.972714228566">
        <ele>62.8</ele>
        <time>2017-12-25T13:09:30Z</time>
      </trkpt>
      <trkpt lat="62.63806610488" lon="17.972759574645">
        <ele>62.8</ele>
        <time>2017-12-25T13:09:31Z</time>
      </trkpt>
      <trkpt lat="62.638064847595" lon="17.972825624017">
        <ele>62.8</ele>
        <time>2017-12-25T13:09:32Z</time>
      </trkpt>
      <trkpt lat="62.638075827884" lon="17.97287566396">
        <ele>63</ele>
        <time>2017-12-25T13:09:33Z</time>
      </trkpt>
      <trkpt lat="62.638072726581" lon="17.972930062491">
        <ele>63</ele>
        <time>2017-12-25T13:09:34Z</time>
      </trkpt>
      <trkpt lat="62.638074402961" lon="17.972987310868">
        <ele>63</ele>
        <time>2017-12-25T13:09:35Z</time>
      </trkpt>
      <trkpt lat="62.638080102653" lon="17.973033327499">
        <ele>63.2</ele>
        <time>2017-12-25T13:09:36Z</time>
      </trkpt>
      <trkpt lat="62.638075744065" lon="17.973095353559">
        <ele>63.4</ele>
        <time>2017-12-25T13:09:37Z</time>
      </trkpt>
      <trkpt lat="62.638082784861" lon="17.973147572796">
        <ele>63.4</ele>
        <time>2017-12-25T13:09:38Z</time>
      </trkpt>
      <trkpt lat="62.638080018834" lon="17.973199875852">
        <ele>63.6</ele>
        <time>2017-12-25T13:09:39Z</time>
      </trkpt>
      <trkpt lat="62.638077755721" lon="17.973250670166">
        <ele>63.8</ele>
        <time>2017-12-25T13:09:40Z</time>
      </trkpt>
      <trkpt lat="62.638084461241" lon="17.973289059268">
        <ele>63.8</ele>
        <time>2017-12-25T13:09:41Z</time>
      </trkpt>
      <trkpt lat="62.63807951592" lon="17.973348989853">
        <ele>64.4</ele>
        <time>2017-12-25T13:09:42Z</time>
      </trkpt>
      <trkpt lat="62.638084125965" lon="17.973406489687">
        <ele>64.4</ele>
        <time>2017-12-25T13:09:43Z</time>
      </trkpt>
      <trkpt lat="62.638083958327" lon="17.9734506623">
        <ele>64.6</ele>
        <time>2017-12-25T13:09:44Z</time>
      </trkpt>
      <trkpt lat="62.638079432101" lon="17.973507156306">
        <ele>64.8</ele>
        <time>2017-12-25T13:09:45Z</time>
      </trkpt>
      <trkpt lat="62.638082533404" lon="17.973569936737">
        <ele>64.8</ele>
        <time>2017-12-25T13:09:46Z</time>
      </trkpt>
      <trkpt lat="62.638079348282" lon="17.973621569241">
        <ele>64.8</ele>
        <time>2017-12-25T13:09:47Z</time>
      </trkpt>
      <trkpt lat="62.638080857024" lon="17.973694910866">
        <ele>65</ele>
        <time>2017-12-25T13:09:48Z</time>
      </trkpt>
      <trkpt lat="62.63807532497" lon="17.973753500347">
        <ele>65</ele>
        <time>2017-12-25T13:09:49Z</time>
      </trkpt>
      <trkpt lat="62.638079013006" lon="17.973816448416">
        <ele>65</ele>
        <time>2017-12-25T13:09:50Z</time>
      </trkpt>
      <trkpt lat="62.638077588083" lon="17.973872439508">
        <ele>65</ele>
        <time>2017-12-25T13:09:51Z</time>
      </trkpt>
      <trkpt lat="62.638083623051" lon="17.973941590183">
        <ele>65</ele>
        <time>2017-12-25T13:09:52Z</time>
      </trkpt>
      <trkpt lat="62.638080521748" lon="17.974005460261">
        <ele>65</ele>
        <time>2017-12-25T13:09:53Z</time>
      </trkpt>
      <trkpt lat="62.638089155105" lon="17.974072934556">
        <ele>65</ele>
        <time>2017-12-25T13:09:54Z</time>
      </trkpt>
      <trkpt lat="62.638086053802" lon="17.974133703331">
        <ele>65</ele>
        <time>2017-12-25T13:09:55Z</time>
      </trkpt>
      <trkpt lat="62.638094938616" lon="17.974186760758">
        <ele>65</ele>
        <time>2017-12-25T13:09:56Z</time>
      </trkpt>
      <trkpt lat="62.638093429874" lon="17.974269993025">
        <ele>65</ele>
        <time>2017-12-25T13:09:57Z</time>
      </trkpt>
      <trkpt lat="62.63810214705" lon="17.974328079592">
        <ele>65</ele>
        <time>2017-12-25T13:09:58Z</time>
      </trkpt>
      <trkpt lat="62.638098207557" lon="17.974416760094">
        <ele>65.2</ele>
        <time>2017-12-25T13:09:59Z</time>
      </trkpt>
      <trkpt lat="62.638102314688" lon="17.974477864145">
        <ele>65</ele>
        <time>2017-12-25T13:10:00Z</time>
      </trkpt>
      <trkpt lat="62.638096195901" lon="17.97456629319">
        <ele>65</ele>
        <time>2017-12-25T13:10:01Z</time>
      </trkpt>
      <trkpt lat="62.638094687159" lon="17.974630079449">
        <ele>65</ele>
        <time>2017-12-25T13:10:02Z</time>
      </trkpt>
      <trkpt lat="62.638080857024" lon="17.974714988096">
        <ele>65.2</ele>
        <time>2017-12-25T13:10:03Z</time>
      </trkpt>
      <trkpt lat="62.638069960554" lon="17.974781624201">
        <ele>65</ele>
        <time>2017-12-25T13:10:04Z</time>
      </trkpt>
      <trkpt lat="62.638056800971" lon="17.974835184542">
        <ele>65.2</ele>
        <time>2017-12-25T13:10:05Z</time>
      </trkpt>
      <trkpt lat="62.638030649443" lon="17.974900563362">
        <ele>65.2</ele>
        <time>2017-12-25T13:10:06Z</time>
      </trkpt>
      <trkpt lat="62.638008772684" lon="17.974948256373">
        <ele>65.2</ele>
        <time>2017-12-25T13:10:07Z</time>
      </trkpt>
      <trkpt lat="62.637995026368" lon="17.974996117022">
        <ele>65.4</ele>
        <time>2017-12-25T13:10:08Z</time>
      </trkpt>
      <trkpt lat="62.637974909808" lon="17.975035344314">
        <ele>65.4</ele>
        <time>2017-12-25T13:10:09Z</time>
      </trkpt>
      <trkpt lat="62.637955966714" lon="17.975075325977">
        <ele>65.4</ele>
        <time>2017-12-25T13:10:10Z</time>
      </trkpt>
      <trkpt lat="62.637929982824" lon="17.975117151658">
        <ele>65.6</ele>
        <time>2017-12-25T13:10:11Z</time>
      </trkpt>
      <trkpt lat="62.637913135205" lon="17.975168281248">
        <ele>65.8</ele>
        <time>2017-12-25T13:10:12Z</time>
      </trkpt>
      <trkpt lat="62.637889749704" lon="17.975199629554">
        <ele>65.8</ele>
        <time>2017-12-25T13:10:13Z</time>
      </trkpt>
      <trkpt lat="62.637874662284" lon="17.975243885986">
        <ele>66</ele>
        <time>2017-12-25T13:10:14Z</time>
      </trkpt>
      <trkpt lat="62.637857060294" lon="17.975273390274">
        <ele>66.2</ele>
        <time>2017-12-25T13:10:15Z</time>
      </trkpt>
      <trkpt lat="62.637835099716" lon="17.975311947014">
        <ele>66.4</ele>
        <time>2017-12-25T13:10:16Z</time>
      </trkpt>
      <trkpt lat="62.637820263753" lon="17.975340277836">
        <ele>66.6</ele>
        <time>2017-12-25T13:10:17Z</time>
      </trkpt>
      <trkpt lat="62.63780039865" lon="17.975366094088">
        <ele>66.8</ele>
        <time>2017-12-25T13:10:18Z</time>
      </trkpt>
      <trkpt lat="62.637785059773" lon="17.975394341091">
        <ele>67</ele>
        <time>2017-12-25T13:10:19Z</time>
      </trkpt>
      <trkpt lat="62.637769553258" lon="17.975417139859">
        <ele>67.2</ele>
        <time>2017-12-25T13:10:20Z</time>
      </trkpt>
      <trkpt lat="62.637748933784" lon="17.975445051586">
        <ele>67.4</ele>
        <time>2017-12-25T13:10:21Z</time>
      </trkpt>
      <trkpt lat="62.637736947667" lon="17.975464749051">
        <ele>67.6</ele>
        <time>2017-12-25T13:10:22Z</time>
      </trkpt>
      <trkpt lat="62.637719513315" lon="17.975486877267">
        <ele>68</ele>
        <time>2017-12-25T13:10:23Z</time>
      </trkpt>
      <trkpt lat="62.63769897766" lon="17.975496767909">
        <ele>68</ele>
        <time>2017-12-25T13:10:24Z</time>
      </trkpt>
      <trkpt lat="62.637682800593" lon="17.975517303564">
        <ele>68.4</ele>
        <time>2017-12-25T13:10:25Z</time>
      </trkpt>
      <trkpt lat="62.637656565246" lon="17.97553691721">
        <ele>68.6</ele>
        <time>2017-12-25T13:10:26Z</time>
      </trkpt>
      <trkpt lat="62.637624965483" lon="17.975548568051">
        <ele>68.8</ele>
        <time>2017-12-25T13:10:27Z</time>
      </trkpt>
      <trkpt lat="62.637606022389" lon="17.975566086222">
        <ele>69</ele>
        <time>2017-12-25T13:10:28Z</time>
      </trkpt>
      <trkpt lat="62.637577859205" lon="17.975574468122">
        <ele>69.2</ele>
        <time>2017-12-25T13:10:29Z</time>
      </trkpt>
      <trkpt lat="62.637556988274" lon="17.975594165587">
        <ele>69.4</ele>
        <time>2017-12-25T13:10:30Z</time>
      </trkpt>
      <trkpt lat="62.637538212818" lon="17.975602631306">
        <ele>69.4</ele>
        <time>2017-12-25T13:10:31Z</time>
      </trkpt>
      <trkpt lat="62.637515162593" lon="17.975622664047">
        <ele>69.6</ele>
        <time>2017-12-25T13:10:32Z</time>
      </trkpt>
      <trkpt lat="62.63750116482" lon="17.975637248553">
        <ele>69.8</ele>
        <time>2017-12-25T13:10:33Z</time>
      </trkpt>
      <trkpt lat="62.63748943016" lon="17.975641355684">
        <ele>69.8</ele>
        <time>2017-12-25T13:10:34Z</time>
      </trkpt>
      <trkpt lat="62.637461602252" lon="17.97567270399">
        <ele>69.8</ele>
        <time>2017-12-25T13:10:35Z</time>
      </trkpt>
      <trkpt lat="62.637442240063" lon="17.975688461962">
        <ele>70.2</ele>
        <time>2017-12-25T13:10:36Z</time>
      </trkpt>
      <trkpt lat="62.637414579793" lon="17.975697765871">
        <ele>70.2</ele>
        <time>2017-12-25T13:10:37Z</time>
      </trkpt>
      <trkpt lat="62.6373938765" lon="17.975725593779">
        <ele>70.4</ele>
        <time>2017-12-25T13:10:38Z</time>
      </trkpt>
      <trkpt lat="62.637369233714" lon="17.975740178285">
        <ele>70.6</ele>
        <time>2017-12-25T13:10:39Z</time>
      </trkpt>
      <trkpt lat="62.637354397751" lon="17.975763312329">
        <ele>71</ele>
        <time>2017-12-25T13:10:40Z</time>
      </trkpt>
      <trkpt lat="62.637330928431" lon="17.975780914319">
        <ele>71.2</ele>
        <time>2017-12-25T13:10:41Z</time>
      </trkpt>
      <trkpt lat="62.637310141319" lon="17.975807568761">
        <ele>71.4</ele>
        <time>2017-12-25T13:10:42Z</time>
      </trkpt>
      <trkpt lat="62.637296311184" lon="17.975831624814">
        <ele>71.4</ele>
        <time>2017-12-25T13:10:43Z</time>
      </trkpt>
      <trkpt lat="62.637279379746" lon="17.975862470206">
        <ele>71.6</ele>
        <time>2017-12-25T13:10:44Z</time>
      </trkpt>
      <trkpt lat="62.63726395705" lon="17.975889376105">
        <ele>71.6</ele>
        <time>2017-12-25T13:10:45Z</time>
      </trkpt>
      <trkpt lat="62.637248282897" lon="17.975917204013">
        <ele>71.8</ele>
        <time>2017-12-25T13:10:46Z</time>
      </trkpt>
      <trkpt lat="62.637235710047" lon="17.975952827088">
        <ele>72.2</ele>
        <time>2017-12-25T13:10:47Z</time>
      </trkpt>
      <trkpt lat="62.637225735586" lon="17.97598786343">
        <ele>72.4</ele>
        <time>2017-12-25T13:10:48Z</time>
      </trkpt>
      <trkpt lat="62.637211318718" lon="17.976027174541">
        <ele>72.6</ele>
        <time>2017-12-25T13:10:49Z</time>
      </trkpt>
      <trkpt lat="62.637210480528" lon="17.97605994777">
        <ele>73</ele>
        <time>2017-12-25T13:10:50Z</time>
      </trkpt>
      <trkpt lat="62.637190363968" lon="17.976096409035">
        <ele>73</ele>
        <time>2017-12-25T13:10:51Z</time>
      </trkpt>
      <trkpt lat="62.637182568801" lon="17.97613873763">
        <ele>73.2</ele>
        <time>2017-12-25T13:10:52Z</time>
      </trkpt>
      <trkpt lat="62.637172845797" lon="17.97618399989">
        <ele>73.2</ele>
        <time>2017-12-25T13:10:53Z</time>
      </trkpt>
      <trkpt lat="62.637163122793" lon="17.976237727869">
        <ele>73.4</ele>
        <time>2017-12-25T13:10:54Z</time>
      </trkpt>
      <trkpt lat="62.637158177472" lon="17.976277290437">
        <ele>73.4</ele>
        <time>2017-12-25T13:10:55Z</time>
      </trkpt>
      <trkpt lat="62.637144850251" lon="17.976328336208">
        <ele>73.4</ele>
        <time>2017-12-25T13:10:56Z</time>
      </trkpt>
      <trkpt lat="62.637142084224" lon="17.976381980368">
        <ele>73.8</ele>
        <time>2017-12-25T13:10:57Z</time>
      </trkpt>
      <trkpt lat="62.637131858306" lon="17.976427326447">
        <ele>73.8</ele>
        <time>2017-12-25T13:10:58Z</time>
      </trkpt>
      <trkpt lat="62.637119201637" lon="17.976481222064">
        <ele>74</ele>
        <time>2017-12-25T13:10:59Z</time>
      </trkpt>
      <trkpt lat="62.637115010687" lon="17.976524724125">
        <ele>74</ele>
        <time>2017-12-25T13:11:00Z</time>
      </trkpt>
      <trkpt lat="62.637100929095" lon="17.976582475416">
        <ele>74.2</ele>
        <time>2017-12-25T13:11:01Z</time>
      </trkpt>
      <trkpt lat="62.637093385385" lon="17.976629749332">
        <ele>74.4</ele>
        <time>2017-12-25T13:11:02Z</time>
      </trkpt>
      <trkpt lat="62.637090284082" lon="17.976667719339">
        <ele>74.4</ele>
        <time>2017-12-25T13:11:03Z</time>
      </trkpt>
      <trkpt lat="62.637086763684" lon="17.976725554449">
        <ele>74.6</ele>
        <time>2017-12-25T13:11:04Z</time>
      </trkpt>
      <trkpt lat="62.637087015141" lon="17.976773415098">
        <ele>74.8</ele>
        <time>2017-12-25T13:11:05Z</time>
      </trkpt>
      <trkpt lat="62.637085925494" lon="17.976836866081">
        <ele>74.8</ele>
        <time>2017-12-25T13:11:06Z</time>
      </trkpt>
      <trkpt lat="62.637086009313" lon="17.976895371743">
        <ele>74.8</ele>
        <time>2017-12-25T13:11:07Z</time>
      </trkpt>
      <trkpt lat="62.637088272426" lon="17.976940382546">
        <ele>74.8</ele>
        <time>2017-12-25T13:11:08Z</time>
      </trkpt>
      <trkpt lat="62.637085338761" lon="17.977009030307">
        <ele>74.8</ele>
        <time>2017-12-25T13:11:09Z</time>
      </trkpt>
      <trkpt lat="62.637083913838" lon="17.977073403299">
        <ele>74.8</ele>
        <time>2017-12-25T13:11:10Z</time>
      </trkpt>
      <trkpt lat="62.637086931322" lon="17.977121515405">
        <ele>74.8</ele>
        <time>2017-12-25T13:11:11Z</time>
      </trkpt>
      <trkpt lat="62.637090619358" lon="17.977192174822">
        <ele>74.8</ele>
        <time>2017-12-25T13:11:12Z</time>
      </trkpt>
      <trkpt lat="62.637083327105" lon="17.977267025189">
        <ele>74.8</ele>
        <time>2017-12-25T13:11:13Z</time>
      </trkpt>
      <trkpt lat="62.637081650725" lon="17.977330308534">
        <ele>74.8</ele>
        <time>2017-12-25T13:11:14Z</time>
      </trkpt>
      <trkpt lat="62.637074777567" lon="17.977384204151">
        <ele>74.8</ele>
        <time>2017-12-25T13:11:15Z</time>
      </trkpt>
      <trkpt lat="62.637062707631" lon="17.977444805288">
        <ele>75</ele>
        <time>2017-12-25T13:11:16Z</time>
      </trkpt>
      <trkpt lat="62.637056337387" lon="17.977484116399">
        <ele>75</ele>
        <time>2017-12-25T13:11:17Z</time>
      </trkpt>
      <trkpt lat="62.63703513118" lon="17.977556787472">
        <ele>75</ele>
        <time>2017-12-25T13:11:18Z</time>
      </trkpt>
      <trkpt lat="62.637027755108" lon="17.977620489912">
        <ele>75</ele>
        <time>2017-12-25T13:11:19Z</time>
      </trkpt>
      <trkpt lat="62.637010656032" lon="17.977672038597">
        <ele>74.8</ele>
        <time>2017-12-25T13:11:20Z</time>
      </trkpt>
      <trkpt lat="62.636998083182" lon="17.977737920331">
        <ele>74.8</ele>
        <time>2017-12-25T13:11:21Z</time>
      </trkpt>
      <trkpt lat="62.63699238349" lon="17.977774968329">
        <ele>74.8</ele>
        <time>2017-12-25T13:11:22Z</time>
      </trkpt>
      <trkpt lat="62.636982241391" lon="17.977840682425">
        <ele>74.8</ele>
        <time>2017-12-25T13:11:23Z</time>
      </trkpt>
      <trkpt lat="62.636978469536" lon="17.977887034332">
        <ele>75</ele>
        <time>2017-12-25T13:11:24Z</time>
      </trkpt>
      <trkpt lat="62.636970087636" lon="17.977947719288">
        <ele>75.2</ele>
        <time>2017-12-25T13:11:25Z</time>
      </trkpt>
      <trkpt lat="62.636963465935" lon="17.978006727864">
        <ele>75.2</ele>
        <time>2017-12-25T13:11:26Z</time>
      </trkpt>
      <trkpt lat="62.636953659112" lon="17.978059282377">
        <ele>75.2</ele>
        <time>2017-12-25T13:11:27Z</time>
      </trkpt>
      <trkpt lat="62.636946031583" lon="17.978125667025">
        <ele>75.2</ele>
        <time>2017-12-25T13:11:28Z</time>
      </trkpt>
      <trkpt lat="62.636940918624" lon="17.978168917629">
        <ele>75.2</ele>
        <time>2017-12-25T13:11:29Z</time>
      </trkpt>
      <trkpt lat="62.63692951924" lon="17.978233039164">
        <ele>75.2</ele>
        <time>2017-12-25T13:11:30Z</time>
      </trkpt>
      <trkpt lat="62.636924238643" lon="17.978274864845">
        <ele>75.2</ele>
        <time>2017-12-25T13:11:31Z</time>
      </trkpt>
      <trkpt lat="62.63690185897" lon="17.97833479543">
        <ele>75.4</ele>
        <time>2017-12-25T13:11:32Z</time>
      </trkpt>
      <trkpt lat="62.636892135966" lon="17.978376537292">
        <ele>75.2</ele>
        <time>2017-12-25T13:11:33Z</time>
      </trkpt>
      <trkpt lat="62.636873528148" lon="17.978423308294">
        <ele>75.4</ele>
        <time>2017-12-25T13:11:34Z</time>
      </trkpt>
      <trkpt lat="62.63685659671" lon="17.978475024617">
        <ele>75.6</ele>
        <time>2017-12-25T13:11:35Z</time>
      </trkpt>
      <trkpt lat="62.636838240349" lon="17.978514922461">
        <ele>75.6</ele>
        <time>2017-12-25T13:11:36Z</time>
      </trkpt>
      <trkpt lat="62.63681468721" lon="17.978566554965">
        <ele>75.6</ele>
        <time>2017-12-25T13:11:37Z</time>
      </trkpt>
      <trkpt lat="62.636797588134" lon="17.978594131416">
        <ele>75.6</ele>
        <time>2017-12-25T13:11:38Z</time>
      </trkpt>
      <trkpt lat="62.636772190977" lon="17.978635370364">
        <ele>75.6</ele>
        <time>2017-12-25T13:11:39Z</time>
      </trkpt>
      <trkpt lat="62.63675433753" lon="17.978659845512">
        <ele>75.6</ele>
        <time>2017-12-25T13:11:40Z</time>
      </trkpt>
      <trkpt lat="62.636737992825" lon="17.978682225185">
        <ele>75.8</ele>
        <time>2017-12-25T13:11:41Z</time>
      </trkpt>
      <trkpt lat="62.636717540989" lon="17.978726565436">
        <ele>75.8</ele>
        <time>2017-12-25T13:11:42Z</time>
      </trkpt>
      <trkpt lat="62.636696837696" lon="17.97874969948">
        <ele>75.8</ele>
        <time>2017-12-25T13:11:43Z</time>
      </trkpt>
      <trkpt lat="62.636667584865" lon="17.978765457452">
        <ele>76</ele>
        <time>2017-12-25T13:11:44Z</time>
      </trkpt>
      <trkpt lat="62.636646043382" lon="17.978772917343">
        <ele>76.2</ele>
        <time>2017-12-25T13:11:45Z</time>
      </trkpt>
      <trkpt lat="62.636621652053" lon="17.978781047786">
        <ele>76.2</ele>
        <time>2017-12-25T13:11:46Z</time>
      </trkpt>
      <trkpt lat="62.63659424324" lon="17.978779539044">
        <ele>76.4</ele>
        <time>2017-12-25T13:11:47Z</time>
      </trkpt>
      <trkpt lat="62.636575048689" lon="17.978796386663">
        <ele>76.6</ele>
        <time>2017-12-25T13:11:48Z</time>
      </trkpt>
      <trkpt lat="62.636547053143" lon="17.97878741803">
        <ele>76.8</ele>
        <time>2017-12-25T13:11:49Z</time>
      </trkpt>
      <trkpt lat="62.636526014574" lon="17.978798733595">
        <ele>77</ele>
        <time>2017-12-25T13:11:50Z</time>
      </trkpt>
      <trkpt lat="62.636501623245" lon="17.978791273704">
        <ele>77.2</ele>
        <time>2017-12-25T13:11:51Z</time>
      </trkpt>
      <trkpt lat="62.636471113129" lon="17.978801164346">
        <ele>77.2</ele>
        <time>2017-12-25T13:11:52Z</time>
      </trkpt>
      <trkpt lat="62.636449404008" lon="17.978803427459">
        <ele>77.4</ele>
        <time>2017-12-25T13:11:53Z</time>
      </trkpt>
      <trkpt lat="62.636424258308" lon="17.978804265649">
        <ele>77.6</ele>
        <time>2017-12-25T13:11:54Z</time>
      </trkpt>
      <trkpt lat="62.636410763449" lon="17.978814994481">
        <ele>78</ele>
        <time>2017-12-25T13:11:55Z</time>
      </trkpt>
      <trkpt lat="62.636384444283" lon="17.978821280906">
        <ele>78.2</ele>
        <time>2017-12-25T13:11:56Z</time>
      </trkpt>
      <trkpt lat="62.6363712847" lon="17.978828573159">
        <ele>78.2</ele>
        <time>2017-12-25T13:11:57Z</time>
      </trkpt>
      <trkpt lat="62.636354856176" lon="17.978839804905">
        <ele>78.6</ele>
        <time>2017-12-25T13:11:58Z</time>
      </trkpt>
      <trkpt lat="62.636333147055" lon="17.978844917864">
        <ele>78.8</ele>
        <time>2017-12-25T13:11:59Z</time>
      </trkpt>
      <trkpt lat="62.636315712703" lon="17.978854892325">
        <ele>79</ele>
        <time>2017-12-25T13:12:00Z</time>
      </trkpt>
      <trkpt lat="62.636301547292" lon="17.978866040252">
        <ele>79</ele>
        <time>2017-12-25T13:12:01Z</time>
      </trkpt>
      <trkpt lat="62.63628327475" lon="17.978876601446">
        <ele>79.2</ele>
        <time>2017-12-25T13:12:02Z</time>
      </trkpt>
      <trkpt lat="62.636266762407" lon="17.978890096305">
        <ele>79.4</ele>
        <time>2017-12-25T13:12:03Z</time>
      </trkpt>
      <trkpt lat="62.636253183729" lon="17.978911302512">
        <ele>79.4</ele>
        <time>2017-12-25T13:12:04Z</time>
      </trkpt>
      <trkpt lat="62.636229798228" lon="17.978928820683">
        <ele>79.6</ele>
        <time>2017-12-25T13:12:05Z</time>
      </trkpt>
      <trkpt lat="62.636211022772" lon="17.978954385478">
        <ele>80</ele>
        <time>2017-12-25T13:12:06Z</time>
      </trkpt>
      <trkpt lat="62.636198114646" lon="17.978973328572">
        <ele>80.2</ele>
        <time>2017-12-25T13:12:07Z</time>
      </trkpt>
      <trkpt lat="62.636181686122" lon="17.978990846743">
        <ele>80.4</ele>
        <time>2017-12-25T13:12:08Z</time>
      </trkpt>
      <trkpt lat="62.63616928091" lon="17.979004425421">
        <ele>80.8</ele>
        <time>2017-12-25T13:12:09Z</time>
      </trkpt>
      <trkpt lat="62.636160731372" lon="17.979020099574">
        <ele>81</ele>
        <time>2017-12-25T13:12:10Z</time>
      </trkpt>
      <trkpt lat="62.636150924549" lon="17.979040383772">
        <ele>81.2</ele>
        <time>2017-12-25T13:12:11Z</time>
      </trkpt>
      <trkpt lat="62.636138854613" lon="17.979063769273">
        <ele>81.6</ele>
        <time>2017-12-25T13:12:12Z</time>
      </trkpt>
      <trkpt lat="62.636126030306" lon="17.979085059299">
        <ele>81.8</ele>
        <time>2017-12-25T13:12:13Z</time>
      </trkpt>
      <trkpt lat="62.636113205999" lon="17.979105678773">
        <ele>82.2</ele>
        <time>2017-12-25T13:12:14Z</time>
      </trkpt>
      <trkpt lat="62.636102980081" lon="17.979130405378">
        <ele>82.4</ele>
        <time>2017-12-25T13:12:15Z</time>
      </trkpt>
      <trkpt lat="62.636094179086" lon="17.979152952689">
        <ele>82.8</ele>
        <time>2017-12-25T13:12:16Z</time>
      </trkpt>
      <trkpt lat="62.636079091666" lon="17.979186983203">
        <ele>83.2</ele>
        <time>2017-12-25T13:12:17Z</time>
      </trkpt>
      <trkpt lat="62.636064674798" lon="17.979220259346">
        <ele>83.4</ele>
        <time>2017-12-25T13:12:18Z</time>
      </trkpt>
      <trkpt lat="62.636052521043" lon="17.979253703127">
        <ele>83.6</ele>
        <time>2017-12-25T13:12:19Z</time>
      </trkpt>
      <trkpt lat="62.636041373116" lon="17.979280609026">
        <ele>83.8</ele>
        <time>2017-12-25T13:12:20Z</time>
      </trkpt>
      <trkpt lat="62.636026369515" lon="17.979318159938">
        <ele>84</ele>
        <time>2017-12-25T13:12:21Z</time>
      </trkpt>
      <trkpt lat="62.636021088918" lon="17.979372390831">
        <ele>84.2</ele>
        <time>2017-12-25T13:12:23Z</time>
      </trkpt>
      <trkpt lat="62.636021005099" lon="17.979402984766">
        <ele>84.4</ele>
        <time>2017-12-25T13:12:24Z</time>
      </trkpt>
      <trkpt lat="62.636017065606" lon="17.979448498483">
        <ele>84.4</ele>
        <time>2017-12-25T13:12:25Z</time>
      </trkpt>
      <trkpt lat="62.636014551036" lon="17.979490994716">
        <ele>84.4</ele>
        <time>2017-12-25T13:12:26Z</time>
      </trkpt>
      <trkpt lat="62.63600751024" lon="17.979568862567">
        <ele>84.6</ele>
        <time>2017-12-25T13:12:27Z</time>
      </trkpt>
      <trkpt lat="62.636013964303" lon="17.979649328807">
        <ele>84.6</ele>
        <time>2017-12-25T13:12:28Z</time>
      </trkpt>
      <trkpt lat="62.636007007326" lon="17.979771285452">
        <ele>84.4</ele>
        <time>2017-12-25T13:12:29Z</time>
      </trkpt>
      <trkpt lat="62.636004576575" lon="17.979917633426">
        <ele>83.8</ele>
        <time>2017-12-25T13:12:30Z</time>
      </trkpt>
      <trkpt lat="62.636006588231" lon="17.980074626413">
        <ele>83</ele>
        <time>2017-12-25T13:12:31Z</time>
      </trkpt>
      <trkpt lat="62.63601756852" lon="17.980220890568">
        <ele>82</ele>
        <time>2017-12-25T13:12:32Z</time>
      </trkpt>
      <trkpt lat="62.636032823578" lon="17.980340332643">
        <ele>80.8</ele>
        <time>2017-12-25T13:12:33Z</time>
      </trkpt>
      <trkpt lat="62.636052604862" lon="17.980496738897">
        <ele>79.8</ele>
        <time>2017-12-25T13:12:34Z</time>
      </trkpt>
      <trkpt lat="62.636073559612" lon="17.98062389232">
        <ele>79</ele>
        <time>2017-12-25T13:12:35Z</time>
      </trkpt>
      <trkpt lat="62.636100046416" lon="17.980758505634">
        <ele>78.6</ele>
        <time>2017-12-25T13:12:36Z</time>
      </trkpt>
      <trkpt lat="62.636123264279" lon="17.980884234134">
        <ele>78.2</ele>
        <time>2017-12-25T13:12:37Z</time>
      </trkpt>
      <trkpt lat="62.636147907065" lon="17.98100610696">
        <ele>78</ele>
        <time>2017-12-25T13:12:38Z</time>
      </trkpt>
      <trkpt lat="62.636167436892" lon="17.981129488528">
        <ele>77.8</ele>
        <time>2017-12-25T13:12:39Z</time>
      </trkpt>
      <trkpt lat="62.636179087733" lon="17.981243650006">
        <ele>77.6</ele>
        <time>2017-12-25T13:12:40Z</time>
      </trkpt>
      <trkpt lat="62.636191325307" lon="17.981363930271">
        <ele>77.4</ele>
        <time>2017-12-25T13:12:41Z</time>
      </trkpt>
      <trkpt lat="62.636199874845" lon="17.981482869432">
        <ele>77.2</ele>
        <time>2017-12-25T13:12:42Z</time>
      </trkpt>
      <trkpt lat="62.636208172926" lon="17.981591834132">
        <ele>77</ele>
        <time>2017-12-25T13:12:43Z</time>
      </trkpt>
      <trkpt lat="62.636213369704" lon="17.981638772772">
        <ele>77</ele>
        <time>2017-12-25T13:12:44Z</time>
      </trkpt>
      <trkpt lat="62.636225858735" lon="17.981785036927">
        <ele>76.8</ele>
        <time>2017-12-25T13:12:45Z</time>
      </trkpt>
      <trkpt lat="62.636238683042" lon="17.98187782456">
        <ele>76.6</ele>
        <time>2017-12-25T13:12:46Z</time>
      </trkpt>
      <trkpt lat="62.636248406046" lon="17.981968600537">
        <ele>76.6</ele>
        <time>2017-12-25T13:12:47Z</time>
      </trkpt>
      <trkpt lat="62.636258715783" lon="17.982060214704">
        <ele>76.4</ele>
        <time>2017-12-25T13:12:48Z</time>
      </trkpt>
      <trkpt lat="62.636260224525" lon="17.982162641522">
        <ele>76.6</ele>
        <time>2017-12-25T13:12:49Z</time>
      </trkpt>
      <trkpt lat="62.636262068543" lon="17.982250316196">
        <ele>76.8</ele>
        <time>2017-12-25T13:12:50Z</time>
      </trkpt>
      <trkpt lat="62.636267013864" lon="17.982342684734">
        <ele>77.2</ele>
        <time>2017-12-25T13:12:51Z</time>
      </trkpt>
      <trkpt lat="62.636267432959" lon="17.982418205653">
        <ele>77.4</ele>
        <time>2017-12-25T13:12:52Z</time>
      </trkpt>
      <trkpt lat="62.636271707728" lon="17.982494145667">
        <ele>77.8</ele>
        <time>2017-12-25T13:12:53Z</time>
      </trkpt>
      <trkpt lat="62.636280927818" lon="17.982566649102">
        <ele>78</ele>
        <time>2017-12-25T13:12:54Z</time>
      </trkpt>
      <trkpt lat="62.636279754352" lon="17.982661113115">
        <ele>78</ele>
        <time>2017-12-25T13:12:55Z</time>
      </trkpt>
      <trkpt lat="62.636288806804" lon="17.982723893546">
        <ele>78</ele>
        <time>2017-12-25T13:12:56Z</time>
      </trkpt>
      <trkpt lat="62.636284364397" lon="17.982805114157">
        <ele>78</ele>
        <time>2017-12-25T13:12:57Z</time>
      </trkpt>
      <trkpt lat="62.636282352741" lon="17.982880635076">
        <ele>78</ele>
        <time>2017-12-25T13:12:58Z</time>
      </trkpt>
      <trkpt lat="62.636284783492" lon="17.982943918421">
        <ele>78</ele>
        <time>2017-12-25T13:12:59Z</time>
      </trkpt>
      <trkpt lat="62.636280508723" lon="17.983024217023">
        <ele>78</ele>
        <time>2017-12-25T13:13:00Z</time>
      </trkpt>
      <trkpt lat="62.63628578932" lon="17.983083644694">
        <ele>77.8</ele>
        <time>2017-12-25T13:13:01Z</time>
      </trkpt>
      <trkpt lat="62.636285705501" lon="17.983149777885">
        <ele>77.8</ele>
        <time>2017-12-25T13:13:02Z</time>
      </trkpt>
      <trkpt lat="62.636286711329" lon="17.9832155758">
        <ele>77.8</ele>
        <time>2017-12-25T13:13:03Z</time>
      </trkpt>
      <trkpt lat="62.636288890623" lon="17.983269303779">
        <ele>77.8</ele>
        <time>2017-12-25T13:13:04Z</time>
      </trkpt>
      <trkpt lat="62.636288387709" lon="17.983342896861">
        <ele>77.8</ele>
        <time>2017-12-25T13:13:05Z</time>
      </trkpt>
      <trkpt lat="62.636292662478" lon="17.983402911265">
        <ele>78</ele>
        <time>2017-12-25T13:13:06Z</time>
      </trkpt>
      <trkpt lat="62.636290315546" lon="17.983465691696">
        <ele>78</ele>
        <time>2017-12-25T13:13:07Z</time>
      </trkpt>
      <trkpt lat="62.636286962786" lon="17.983529142679">
        <ele>78.2</ele>
        <time>2017-12-25T13:13:08Z</time>
      </trkpt>
      <trkpt lat="62.636283945302" lon="17.983574069663">
        <ele>78.2</ele>
        <time>2017-12-25T13:13:09Z</time>
      </trkpt>
      <trkpt lat="62.636275898678" lon="17.983625031615">
        <ele>78.4</ele>
        <time>2017-12-25T13:13:10Z</time>
      </trkpt>
      <trkpt lat="62.636268271149" lon="17.98368412401">
        <ele>78.6</ele>
        <time>2017-12-25T13:13:11Z</time>
      </trkpt>
      <trkpt lat="62.636260392163" lon="17.983729470089">
        <ele>78.6</ele>
        <time>2017-12-25T13:13:12Z</time>
      </trkpt>
      <trkpt lat="62.63624890896" lon="17.983788394846">
        <ele>78.8</ele>
        <time>2017-12-25T13:13:13Z</time>
      </trkpt>
      <trkpt lat="62.636245304743" lon="17.983828460328">
        <ele>79</ele>
        <time>2017-12-25T13:13:14Z</time>
      </trkpt>
      <trkpt lat="62.636232396617" lon="17.983886295438">
        <ele>79</ele>
        <time>2017-12-25T13:13:15Z</time>
      </trkpt>
      <trkpt lat="62.636230720237" lon="17.983939855779">
        <ele>79.2</ele>
        <time>2017-12-25T13:13:16Z</time>
      </trkpt>
      <trkpt lat="62.636218985577" lon="17.983987967885">
        <ele>79.4</ele>
        <time>2017-12-25T13:13:17Z</time>
      </trkpt>
      <trkpt lat="62.636215632817" lon="17.984044042796">
        <ele>79.4</ele>
        <time>2017-12-25T13:13:18Z</time>
      </trkpt>
      <trkpt lat="62.636212447695" lon="17.984087796314">
        <ele>79.4</ele>
        <time>2017-12-25T13:13:19Z</time>
      </trkpt>
      <trkpt lat="62.636204652528" lon="17.984147307804">
        <ele>79.4</ele>
        <time>2017-12-25T13:13:20Z</time>
      </trkpt>
      <trkpt lat="62.636203898157" lon="17.984191899512">
        <ele>79.6</ele>
        <time>2017-12-25T13:13:21Z</time>
      </trkpt>
      <trkpt lat="62.636199288112" lon="17.984257613608">
        <ele>79.6</ele>
        <time>2017-12-25T13:13:22Z</time>
      </trkpt>
      <trkpt lat="62.636197863189" lon="17.984309581388">
        <ele>79.6</ele>
        <time>2017-12-25T13:13:23Z</time>
      </trkpt>
      <trkpt lat="62.636194175153" lon="17.984364650471">
        <ele>79.6</ele>
        <time>2017-12-25T13:13:24Z</time>
      </trkpt>
      <trkpt lat="62.636194510429" lon="17.984418713726">
        <ele>79.6</ele>
        <time>2017-12-25T13:13:25Z</time>
      </trkpt>
      <trkpt lat="62.636193839877" lon="17.984467412565">
        <ele>79.8</ele>
        <time>2017-12-25T13:13:26Z</time>
      </trkpt>
      <trkpt lat="62.636189062194" lon="17.984533713394">
        <ele>80</ele>
        <time>2017-12-25T13:13:27Z</time>
      </trkpt>
      <trkpt lat="62.636190990031" lon="17.984573275962">
        <ele>80</ele>
        <time>2017-12-25T13:13:28Z</time>
      </trkpt>
      <trkpt lat="62.636183111045" lon="17.984637229859">
        <ele>80.2</ele>
        <time>2017-12-25T13:13:29Z</time>
      </trkpt>
      <trkpt lat="62.636181434665" lon="17.98467570278">
        <ele>80.2</ele>
        <time>2017-12-25T13:13:30Z</time>
      </trkpt>
      <trkpt lat="62.636174226231" lon="17.984743177075">
        <ele>80.4</ele>
        <time>2017-12-25T13:13:31Z</time>
      </trkpt>
      <trkpt lat="62.636176154068" lon="17.984787517326">
        <ele>80.4</ele>
        <time>2017-12-25T13:13:32Z</time>
      </trkpt>
      <trkpt lat="62.636169951462" lon="17.984837138174">
        <ele>80.4</ele>
        <time>2017-12-25T13:13:33Z</time>
      </trkpt>
      <trkpt lat="62.636170873471" lon="17.984876365466">
        <ele>80.6</ele>
        <time>2017-12-25T13:13:34Z</time>
      </trkpt>
      <trkpt lat="62.636169951462" lon="17.984925064305">
        <ele>80.6</ele>
        <time>2017-12-25T13:13:35Z</time>
      </trkpt>
      <trkpt lat="62.636162240114" lon="17.984987258003">
        <ele>80.6</ele>
        <time>2017-12-25T13:13:36Z</time>
      </trkpt>
      <trkpt lat="62.636165844331" lon="17.985025060372">
        <ele>80.8</ele>
        <time>2017-12-25T13:13:37Z</time>
      </trkpt>
      <trkpt lat="62.63616508996" lon="17.985089517183">
        <ele>81</ele>
        <time>2017-12-25T13:13:38Z</time>
      </trkpt>
      <trkpt lat="62.636165425236" lon="17.985123547697">
        <ele>81</ele>
        <time>2017-12-25T13:13:39Z</time>
      </trkpt>
      <trkpt lat="62.63616089901" lon="17.985173671459">
        <ele>81.2</ele>
        <time>2017-12-25T13:13:40Z</time>
      </trkpt>
      <trkpt lat="62.636155450775" lon="17.98522136447">
        <ele>81.2</ele>
        <time>2017-12-25T13:13:41Z</time>
      </trkpt>
      <trkpt lat="62.636148577617" lon="17.985275260087">
        <ele>81.2</ele>
        <time>2017-12-25T13:13:42Z</time>
      </trkpt>
      <trkpt lat="62.63614329702" lon="17.985337956699">
        <ele>81.2</ele>
        <time>2017-12-25T13:13:43Z</time>
      </trkpt>
      <trkpt lat="62.63614581159" lon="17.985380872027">
        <ele>81.4</ele>
        <time>2017-12-25T13:13:44Z</time>
      </trkpt>
      <trkpt lat="62.63613994426" lon="17.985446669942">
        <ele>81.4</ele>
        <time>2017-12-25T13:13:45Z</time>
      </trkpt>
      <trkpt lat="62.636140195717" lon="17.985498637722">
        <ele>81.6</ele>
        <time>2017-12-25T13:13:46Z</time>
      </trkpt>
      <trkpt lat="62.636130053618" lon="17.985561753429">
        <ele>81.6</ele>
        <time>2017-12-25T13:13:47Z</time>
      </trkpt>
      <trkpt lat="62.636121587899" lon="17.985625120593">
        <ele>81.8</ele>
        <time>2017-12-25T13:13:48Z</time>
      </trkpt>
      <trkpt lat="62.636106835755" lon="17.985672981242">
        <ele>81.8</ele>
        <time>2017-12-25T13:13:49Z</time>
      </trkpt>
      <trkpt lat="62.636097867122" lon="17.985719500787">
        <ele>81.8</ele>
        <time>2017-12-25T13:13:50Z</time>
      </trkpt>
      <trkpt lat="62.636079007847" lon="17.985765517418">
        <ele>81.8</ele>
        <time>2017-12-25T13:13:51Z</time>
      </trkpt>
      <trkpt lat="62.636066770273" lon="17.985809019479">
        <ele>81.8</ele>
        <time>2017-12-25T13:13:52Z</time>
      </trkpt>
      <trkpt lat="62.636045731704" lon="17.985842798536">
        <ele>82</ele>
        <time>2017-12-25T13:13:53Z</time>
      </trkpt>
      <trkpt lat="62.636021256556" lon="17.985879427439">
        <ele>82.2</ele>
        <time>2017-12-25T13:13:54Z</time>
      </trkpt>
      <trkpt lat="62.635998709245" lon="17.985907255347">
        <ele>82.2</ele>
        <time>2017-12-25T13:13:55Z</time>
      </trkpt>
      <trkpt lat="62.635983118911" lon="17.985935669988">
        <ele>82.4</ele>
        <time>2017-12-25T13:13:56Z</time>
      </trkpt>
      <trkpt lat="62.635959817229" lon="17.985949164847">
        <ele>82.6</ele>
        <time>2017-12-25T13:13:57Z</time>
      </trkpt>
      <trkpt lat="62.635936180271" lon="17.985967772665">
        <ele>82.8</ele>
        <time>2017-12-25T13:13:58Z</time>
      </trkpt>
      <trkpt lat="62.635917069539" lon="17.986002473731">
        <ele>83</ele>
        <time>2017-12-25T13:13:59Z</time>
      </trkpt>
      <trkpt lat="62.635888151984" lon="17.986029798725">
        <ele>83</ele>
        <time>2017-12-25T13:14:00Z</time>
      </trkpt>
      <trkpt lat="62.635857055135" lon="17.986059386832">
        <ele>83.2</ele>
        <time>2017-12-25T13:14:01Z</time>
      </trkpt>
      <trkpt lat="62.635835597471" lon="17.986084532532">
        <ele>83.4</ele>
        <time>2017-12-25T13:14:02Z</time>
      </trkpt>
      <trkpt lat="62.635805087355" lon="17.986119485055">
        <ele>83.4</ele>
        <time>2017-12-25T13:14:03Z</time>
      </trkpt>
      <trkpt lat="62.635780612207" lon="17.986155778682">
        <ele>83.6</ele>
        <time>2017-12-25T13:14:04Z</time>
      </trkpt>
      <trkpt lat="62.635760328009" lon="17.986189054825">
        <ele>83.4</ele>
        <time>2017-12-25T13:14:05Z</time>
      </trkpt>
      <trkpt lat="62.635738618888" lon="17.986233143619">
        <ele>83.6</ele>
        <time>2017-12-25T13:14:06Z</time>
      </trkpt>
      <trkpt lat="62.63572168745" lon="17.986273544377">
        <ele>83.6</ele>
        <time>2017-12-25T13:14:07Z</time>
      </trkpt>
      <trkpt lat="62.635710874799" lon="17.986316375886">
        <ele>83.8</ele>
        <time>2017-12-25T13:14:08Z</time>
      </trkpt>
      <trkpt lat="62.635691093515" lon="17.986350993133">
        <ele>83.8</ele>
        <time>2017-12-25T13:14:09Z</time>
      </trkpt>
      <trkpt lat="62.635676760466" lon="17.986393237909">
        <ele>84</ele>
        <time>2017-12-25T13:14:10Z</time>
      </trkpt>
      <trkpt lat="62.635654464612" lon="17.986432381382">
        <ele>84.2</ele>
        <time>2017-12-25T13:14:11Z</time>
      </trkpt>
      <trkpt lat="62.635640299201" lon="17.986484097705">
        <ele>84.4</ele>
        <time>2017-12-25T13:14:12Z</time>
      </trkpt>
      <trkpt lat="62.635628815998" lon="17.986533802372">
        <ele>84.6</ele>
        <time>2017-12-25T13:14:13Z</time>
      </trkpt>
      <trkpt lat="62.635611130189" lon="17.986588284722">
        <ele>84.6</ele>
        <time>2017-12-25T13:14:14Z</time>
      </trkpt>
      <trkpt lat="62.635601910099" lon="17.986635642457">
        <ele>84.8</ele>
        <time>2017-12-25T13:14:15Z</time>
      </trkpt>
      <trkpt lat="62.635579278969" lon="17.98668735878">
        <ele>84.8</ele>
        <time>2017-12-25T13:14:16Z</time>
      </trkpt>
      <trkpt lat="62.635568550137" lon="17.986729519737">
        <ele>84.8</ele>
        <time>2017-12-25T13:14:17Z</time>
      </trkpt>
      <trkpt lat="62.635544577903" lon="17.986764220803">
        <ele>85</ele>
        <time>2017-12-25T13:14:18Z</time>
      </trkpt>
      <trkpt lat="62.635526305361" lon="17.986809902158">
        <ele>85.2</ele>
        <time>2017-12-25T13:14:19Z</time>
      </trkpt>
      <trkpt lat="62.63551549271" lon="17.986848626536">
        <ele>85.4</ele>
        <time>2017-12-25T13:14:20Z</time>
      </trkpt>
      <trkpt lat="62.635496298159" lon="17.986903360343">
        <ele>85.6</ele>
        <time>2017-12-25T13:14:21Z</time>
      </trkpt>
      <trkpt lat="62.635482468024" lon="17.986960776358">
        <ele>85.8</ele>
        <time>2017-12-25T13:14:22Z</time>
      </trkpt>
      <trkpt lat="62.63545346665" lon="17.986998914003">
        <ele>85.8</ele>
        <time>2017-12-25T13:14:23Z</time>
      </trkpt>
      <trkpt lat="62.635438463049" lon="17.98705113324">
        <ele>86</ele>
        <time>2017-12-25T13:14:24Z</time>
      </trkpt>
      <trkpt lat="62.635420106688" lon="17.987076614216">
        <ele>86</ele>
        <time>2017-12-25T13:14:25Z</time>
      </trkpt>
      <trkpt lat="62.635404097259" lon="17.987126318883">
        <ele>86.2</ele>
        <time>2017-12-25T13:14:26Z</time>
      </trkpt>
      <trkpt lat="62.635390183305" lon="17.987149285289">
        <ele>86.2</ele>
        <time>2017-12-25T13:14:27Z</time>
      </trkpt>
      <trkpt lat="62.635368390365" lon="17.98718524364">
        <ele>86.4</ele>
        <time>2017-12-25T13:14:28Z</time>
      </trkpt>
      <trkpt lat="62.635349363452" lon="17.987239139257">
        <ele>86.4</ele>
        <time>2017-12-25T13:14:29Z</time>
      </trkpt>
      <trkpt lat="62.635327989607" lon="17.987276019617">
        <ele>86.4</ele>
        <time>2017-12-25T13:14:30Z</time>
      </trkpt>
      <trkpt lat="62.635314243291" lon="17.98731683947">
        <ele>86.6</ele>
        <time>2017-12-25T13:14:31Z</time>
      </trkpt>
      <trkpt lat="62.635289349048" lon="17.987351372898">
        <ele>86.6</ele>
        <time>2017-12-25T13:14:32Z</time>
      </trkpt>
      <trkpt lat="62.635269986859" lon="17.987391857475">
        <ele>86.6</ele>
        <time>2017-12-25T13:14:33Z</time>
      </trkpt>
      <trkpt lat="62.635256659638" lon="17.987433012604">
        <ele>86.8</ele>
        <time>2017-12-25T13:14:34Z</time>
      </trkpt>
      <trkpt lat="62.635232435947" lon="17.987473413362">
        <ele>86.8</ele>
        <time>2017-12-25T13:14:35Z</time>
      </trkpt>
      <trkpt lat="62.635213660491" lon="17.987532086662">
        <ele>87</ele>
        <time>2017-12-25T13:14:36Z</time>
      </trkpt>
      <trkpt lat="62.635189101524" lon="17.987555639801">
        <ele>87.2</ele>
        <time>2017-12-25T13:14:37Z</time>
      </trkpt>
      <trkpt lat="62.635164374919" lon="17.987591262876">
        <ele>87.2</ele>
        <time>2017-12-25T13:14:38Z</time>
      </trkpt>
      <trkpt lat="62.635150544784" lon="17.987624203743">
        <ele>87.4</ele>
        <time>2017-12-25T13:14:39Z</time>
      </trkpt>
      <trkpt lat="62.635128751844" lon="17.987654462402">
        <ele>87.6</ele>
        <time>2017-12-25T13:14:40Z</time>
      </trkpt>
      <trkpt lat="62.635111233673" lon="17.987693102961">
        <ele>87.8</ele>
        <time>2017-12-25T13:14:41Z</time>
      </trkpt>
      <trkpt lat="62.635084243955" lon="17.987734341909">
        <ele>87.8</ele>
        <time>2017-12-25T13:14:42Z</time>
      </trkpt>
      <trkpt lat="62.635060858454" lon="17.987772395735">
        <ele>88</ele>
        <time>2017-12-25T13:14:43Z</time>
      </trkpt>
      <trkpt lat="62.635043927016" lon="17.987808354086">
        <ele>88.2</ele>
        <time>2017-12-25T13:14:44Z</time>
      </trkpt>
      <trkpt lat="62.635016518203" lon="17.987838026012">
        <ele>88.2</ele>
        <time>2017-12-25T13:14:45Z</time>
      </trkpt>
      <trkpt lat="62.634992965064" lon="17.987898627149">
        <ele>88.4</ele>
        <time>2017-12-25T13:14:46Z</time>
      </trkpt>
      <trkpt lat="62.63496228731" lon="17.987934166405">
        <ele>88.6</ele>
        <time>2017-12-25T13:14:47Z</time>
      </trkpt>
      <trkpt lat="62.63493714161" lon="17.98796056939">
        <ele>88.6</ele>
        <time>2017-12-25T13:14:48Z</time>
      </trkpt>
      <trkpt lat="62.634918785249" lon="17.987999796682">
        <ele>88.8</ele>
        <time>2017-12-25T13:14:49Z</time>
      </trkpt>
      <trkpt lat="62.634893388092" lon="17.988026367305">
        <ele>88.8</ele>
        <time>2017-12-25T13:14:50Z</time>
      </trkpt>
      <trkpt lat="62.634867404202" lon="17.988048914616">
        <ele>88.8</ele>
        <time>2017-12-25T13:14:51Z</time>
      </trkpt>
      <trkpt lat="62.634850975678" lon="17.988079257094">
        <ele>88.8</ele>
        <time>2017-12-25T13:14:52Z</time>
      </trkpt>
      <trkpt lat="62.634820214105" lon="17.988097445817">
        <ele>89</ele>
        <time>2017-12-25T13:14:53Z</time>
      </trkpt>
      <trkpt lat="62.634800013726" lon="17.988124100259">
        <ele>89</ele>
        <time>2017-12-25T13:14:54Z</time>
      </trkpt>
      <trkpt lat="62.634771934361" lon="17.988120831318">
        <ele>89.2</ele>
        <time>2017-12-25T13:14:55Z</time>
      </trkpt>
      <trkpt lat="62.634744609367" lon="17.988145138828">
        <ele>89.4</ele>
        <time>2017-12-25T13:14:56Z</time>
      </trkpt>
      <trkpt lat="62.634716613821" lon="17.988143210991">
        <ele>89.6</ele>
        <time>2017-12-25T13:14:57Z</time>
      </trkpt>
      <trkpt lat="62.634691300483" lon="17.988159723334">
        <ele>89.8</ele>
        <time>2017-12-25T13:14:58Z</time>
      </trkpt>
      <trkpt lat="62.634668334077" lon="17.988145977018">
        <ele>90</ele>
        <time>2017-12-25T13:14:59Z</time>
      </trkpt>
      <trkpt lat="62.634640589988" lon="17.988167015587">
        <ele>90</ele>
        <time>2017-12-25T13:15:00Z</time>
      </trkpt>
      <trkpt lat="62.634616701573" lon="17.988159304239">
        <ele>90.2</ele>
        <time>2017-12-25T13:15:01Z</time>
      </trkpt>
      <trkpt lat="62.634592561701" lon="17.988181600093">
        <ele>90.2</ele>
        <time>2017-12-25T13:15:02Z</time>
      </trkpt>
      <trkpt lat="62.634573618607" lon="17.988171541813">
        <ele>90.4</ele>
        <time>2017-12-25T13:15:03Z</time>
      </trkpt>
      <trkpt lat="62.634545958337" lon="17.988189814355">
        <ele>90.4</ele>
        <time>2017-12-25T13:15:04Z</time>
      </trkpt>
      <trkpt lat="62.634523662483" lon="17.98818268974">
        <ele>90.4</ele>
        <time>2017-12-25T13:15:05Z</time>
      </trkpt>
      <trkpt lat="62.634496840403" lon="17.988211355838">
        <ele>90.6</ele>
        <time>2017-12-25T13:15:06Z</time>
      </trkpt>
      <trkpt lat="62.634469766866" lon="17.988215714426">
        <ele>90.6</ele>
        <time>2017-12-25T13:15:07Z</time>
      </trkpt>
      <trkpt lat="62.634430958669" lon="17.988228203457">
        <ele>90.8</ele>
        <time>2017-12-25T13:15:08Z</time>
      </trkpt>
      <trkpt lat="62.634399442725" lon="17.98824806856">
        <ele>90.8</ele>
        <time>2017-12-25T13:15:09Z</time>
      </trkpt>
      <trkpt lat="62.634377649785" lon="17.988234322244">
        <ele>91</ele>
        <time>2017-12-25T13:15:10Z</time>
      </trkpt>
      <trkpt lat="62.63435040861" lon="17.988246056904">
        <ele>91</ele>
        <time>2017-12-25T13:15:11Z</time>
      </trkpt>
      <trkpt lat="62.634327023109" lon="17.988249577302">
        <ele>91</ele>
        <time>2017-12-25T13:15:12Z</time>
      </trkpt>
      <trkpt lat="62.634294668975" lon="17.988247649465">
        <ele>91.4</ele>
        <time>2017-12-25T13:15:13Z</time>
      </trkpt>
      <trkpt lat="62.634266757248" lon="17.988252510967">
        <ele>91.4</ele>
        <time>2017-12-25T13:15:14Z</time>
      </trkpt>
      <trkpt lat="62.634236917684" lon="17.988237758823">
        <ele>91.6</ele>
        <time>2017-12-25T13:15:15Z</time>
      </trkpt>
      <trkpt lat="62.634212526355" lon="17.988252175691">
        <ele>91.6</ele>
        <time>2017-12-25T13:15:16Z</time>
      </trkpt>
      <trkpt lat="62.634172963787" lon="17.988236082443">
        <ele>91.6</ele>
        <time>2017-12-25T13:15:17Z</time>
      </trkpt>
      <trkpt lat="62.634142705128" lon="17.988236836814">
        <ele>91.8</ele>
        <time>2017-12-25T13:15:18Z</time>
      </trkpt>
      <trkpt lat="62.634104986578" lon="17.988213199856">
        <ele>91.6</ele>
        <time>2017-12-25T13:15:19Z</time>
      </trkpt>
      <trkpt lat="62.634081433439" lon="17.988223006679">
        <ele>91.8</ele>
        <time>2017-12-25T13:15:20Z</time>
      </trkpt>
      <trkpt lat="62.63404782202" lon="17.988192161287">
        <ele>91.8</ele>
        <time>2017-12-25T13:15:21Z</time>
      </trkpt>
      <trkpt lat="62.634026364356" lon="17.988192161287">
        <ele>91.8</ele>
        <time>2017-12-25T13:15:22Z</time>
      </trkpt>
      <trkpt lat="62.633990238367" lon="17.988166428854">
        <ele>91.8</ele>
        <time>2017-12-25T13:15:23Z</time>
      </trkpt>
      <trkpt lat="62.633957632776" lon="17.98815754404">
        <ele>92</ele>
        <time>2017-12-25T13:15:24Z</time>
      </trkpt>
      <trkpt lat="62.633931900343" lon="17.988130051408">
        <ele>92</ele>
        <time>2017-12-25T13:15:25Z</time>
      </trkpt>
      <trkpt lat="62.633897534553" lon="17.988112365599">
        <ele>92.2</ele>
        <time>2017-12-25T13:15:26Z</time>
      </trkpt>
      <trkpt lat="62.633875825432" lon="17.988086465528">
        <ele>92.4</ele>
        <time>2017-12-25T13:15:27Z</time>
      </trkpt>
      <trkpt lat="62.633840034719" lon="17.988066348968">
        <ele>92.4</ele>
        <time>2017-12-25T13:15:28Z</time>
      </trkpt>
      <trkpt lat="62.633815727209" lon="17.988036928499">
        <ele>92.6</ele>
        <time>2017-12-25T13:15:29Z</time>
      </trkpt>
      <trkpt lat="62.633782702523" lon="17.988010609333">
        <ele>92.6</ele>
        <time>2017-12-25T13:15:30Z</time>
      </trkpt>
      <trkpt lat="62.633757724461" lon="17.987981021226">
        <ele>92.6</ele>
        <time>2017-12-25T13:15:31Z</time>
      </trkpt>
      <trkpt lat="62.633720760282" lon="17.987958390096">
        <ele>92.8</ele>
        <time>2017-12-25T13:15:32Z</time>
      </trkpt>
      <trkpt lat="62.633698129152" lon="17.987926371238">
        <ele>92.8</ele>
        <time>2017-12-25T13:15:33Z</time>
      </trkpt>
      <trkpt lat="62.633666110294" lon="17.987893178914">
        <ele>92.8</ele>
        <time>2017-12-25T13:15:34Z</time>
      </trkpt>
      <trkpt lat="62.63364465263" lon="17.987873481449">
        <ele>92.8</ele>
        <time>2017-12-25T13:15:35Z</time>
      </trkpt>
      <trkpt lat="62.633613304324" lon="17.987823357687">
        <ele>92.8</ele>
        <time>2017-12-25T13:15:36Z</time>
      </trkpt>
      <trkpt lat="62.633592517212" lon="17.987789075716">
        <ele>93</ele>
        <time>2017-12-25T13:15:37Z</time>
      </trkpt>
      <trkpt lat="62.633572400652" lon="17.987757978867">
        <ele>93</ele>
        <time>2017-12-25T13:15:38Z</time>
      </trkpt>
      <trkpt lat="62.633555133938" lon="17.987732497891">
        <ele>93.2</ele>
        <time>2017-12-25T13:15:39Z</time>
      </trkpt>
      <trkpt lat="62.633533592455" lon="17.98769570135">
        <ele>93.4</ele>
        <time>2017-12-25T13:15:40Z</time>
      </trkpt>
      <trkpt lat="62.633509033488" lon="17.987659240085">
        <ele>93.8</ele>
        <time>2017-12-25T13:15:41Z</time>
      </trkpt>
      <trkpt lat="62.633481708494" lon="17.987626718313">
        <ele>94</ele>
        <time>2017-12-25T13:15:42Z</time>
      </trkpt>
      <trkpt lat="62.633455556966" lon="17.987589586496">
        <ele>94.4</ele>
        <time>2017-12-25T13:15:43Z</time>
      </trkpt>
      <trkpt lat="62.633434434578" lon="17.987551951765">
        <ele>94.6</ele>
        <time>2017-12-25T13:15:44Z</time>
      </trkpt>
      <trkpt lat="62.633413647466" lon="17.987520268183">
        <ele>94.8</ele>
        <time>2017-12-25T13:15:45Z</time>
      </trkpt>
      <trkpt lat="62.633393027992" lon="17.987487746411">
        <ele>94.8</ele>
        <time>2017-12-25T13:15:46Z</time>
      </trkpt>
      <trkpt lat="62.63337559364" lon="17.987451033689">
        <ele>95</ele>
        <time>2017-12-25T13:15:47Z</time>
      </trkpt>
      <trkpt lat="62.633355225623" lon="17.987409710922">
        <ele>95.4</ele>
        <time>2017-12-25T13:15:48Z</time>
      </trkpt>
      <trkpt lat="62.633335863434" lon="17.987374506942">
        <ele>95.4</ele>
        <time>2017-12-25T13:15:49Z</time>
      </trkpt>
      <trkpt lat="62.633313064666" lon="17.987318264393">
        <ele>95.6</ele>
        <time>2017-12-25T13:15:50Z</time>
      </trkpt>
      <trkpt lat="62.633294456848" lon="17.987252466478">
        <ele>95.8</ele>
        <time>2017-12-25T13:15:51Z</time>
      </trkpt>
      <trkpt lat="62.633273753555" lon="17.987168563659">
        <ele>96</ele>
        <time>2017-12-25T13:15:52Z</time>
      </trkpt>
      <trkpt lat="62.633251290063" lon="17.987063622271">
        <ele>96</ele>
        <time>2017-12-25T13:15:53Z</time>
      </trkpt>
      <trkpt lat="62.633231173503" lon="17.986958597064">
        <ele>96</ele>
        <time>2017-12-25T13:15:54Z</time>
      </trkpt>
      <trkpt lat="62.633212649504" lon="17.986846363423">
        <ele>95.6</ele>
        <time>2017-12-25T13:15:55Z</time>
      </trkpt>
      <trkpt lat="62.633197813541" lon="17.986738823646">
        <ele>95.6</ele>
        <time>2017-12-25T13:15:56Z</time>
      </trkpt>
      <trkpt lat="62.633186749433" lon="17.986643186167">
        <ele>95.4</ele>
        <time>2017-12-25T13:15:57Z</time>
      </trkpt>
      <trkpt lat="62.633176607334" lon="17.986540926987">
        <ele>94.8</ele>
        <time>2017-12-25T13:15:58Z</time>
      </trkpt>
      <trkpt lat="62.633164034484" lon="17.986447887897">
        <ele>94.6</ele>
        <time>2017-12-25T13:15:59Z</time>
      </trkpt>
      <trkpt lat="62.633152802738" lon="17.986345544898">
        <ele>94.2</ele>
        <time>2017-12-25T13:16:00Z</time>
      </trkpt>
      <trkpt lat="62.633147354503" lon="17.986228533574">
        <ele>93.6</ele>
        <time>2017-12-25T13:16:01Z</time>
      </trkpt>
      <trkpt lat="62.633146683951" lon="17.986114958829">
        <ele>93.2</ele>
        <time>2017-12-25T13:16:02Z</time>
      </trkpt>
      <trkpt lat="62.633148779426" lon="17.985991828718">
        <ele>93</ele>
        <time>2017-12-25T13:16:03Z</time>
      </trkpt>
      <trkpt lat="62.633149785254" lon="17.985875907041">
        <ele>92.4</ele>
        <time>2017-12-25T13:16:04Z</time>
      </trkpt>
      <trkpt lat="62.633150455806" lon="17.985757303156">
        <ele>92</ele>
        <time>2017-12-25T13:16:05Z</time>
      </trkpt>
      <trkpt lat="62.633153640928" lon="17.985643057859">
        <ele>91.6</ele>
        <time>2017-12-25T13:16:06Z</time>
      </trkpt>
      <trkpt lat="62.633158670068" lon="17.985530069847">
        <ele>91.6</ele>
        <time>2017-12-25T13:16:07Z</time>
      </trkpt>
      <trkpt lat="62.633166129959" lon="17.985418171482">
        <ele>91.2</ele>
        <time>2017-12-25T13:16:08Z</time>
      </trkpt>
      <trkpt lat="62.633173003117" lon="17.985317923958">
        <ele>91.2</ele>
        <time>2017-12-25T13:16:09Z</time>
      </trkpt>
      <trkpt lat="62.633179624818" lon="17.985188507422">
        <ele>91.2</ele>
        <time>2017-12-25T13:16:10Z</time>
      </trkpt>
      <trkpt lat="62.633192952039" lon="17.985051714814">
        <ele>90.8</ele>
        <time>2017-12-25T13:16:11Z</time>
      </trkpt>
      <trkpt lat="62.633211643676" lon="17.984917688233">
        <ele>90.4</ele>
        <time>2017-12-25T13:16:12Z</time>
      </trkpt>
      <trkpt lat="62.633234442444" lon="17.984789948077">
        <ele>89.6</ele>
        <time>2017-12-25T13:16:13Z</time>
      </trkpt>
      <trkpt lat="62.633258163221" lon="17.98467151183">
        <ele>89.2</ele>
        <time>2017-12-25T13:16:14Z</time>
      </trkpt>
      <trkpt lat="62.633283811835" lon="17.984551483022">
        <ele>88.4</ele>
        <time>2017-12-25T13:16:15Z</time>
      </trkpt>
      <trkpt lat="62.633308957535" lon="17.984445871082">
        <ele>87.8</ele>
        <time>2017-12-25T13:16:16Z</time>
      </trkpt>
      <trkpt lat="62.633329241733" lon="17.984346126472">
        <ele>87.2</ele>
        <time>2017-12-25T13:16:17Z</time>
      </trkpt>
      <trkpt lat="62.633343490963" lon="17.984247639147">
        <ele>86.4</ele>
        <time>2017-12-25T13:16:18Z</time>
      </trkpt>
      <trkpt lat="62.633351621406" lon="17.984154851514">
        <ele>86.2</ele>
        <time>2017-12-25T13:16:19Z</time>
      </trkpt>
      <trkpt lat="62.633354387433" lon="17.984056196551">
        <ele>86</ele>
        <time>2017-12-25T13:16:20Z</time>
      </trkpt>
      <trkpt lat="62.63335463889" lon="17.983974808302">
        <ele>86.2</ele>
        <time>2017-12-25T13:16:21Z</time>
      </trkpt>
      <trkpt lat="62.633360673858" lon="17.983881350117">
        <ele>86.6</ele>
        <time>2017-12-25T13:16:22Z</time>
      </trkpt>
      <trkpt lat="62.633366457369" lon="17.983782359878">
        <ele>87</ele>
        <time>2017-12-25T13:16:23Z</time>
      </trkpt>
      <trkpt lat="62.633366792645" lon="17.983699379068">
        <ele>87.2</ele>
        <time>2017-12-25T13:16:24Z</time>
      </trkpt>
      <trkpt lat="62.633377102382" lon="17.983609776557">
        <ele>87.8</ele>
        <time>2017-12-25T13:16:25Z</time>
      </trkpt>
      <trkpt lat="62.633393027992" lon="17.983525957557">
        <ele>88</ele>
        <time>2017-12-25T13:16:26Z</time>
      </trkpt>
      <trkpt lat="62.633403086272" lon="17.983450771914">
        <ele>87.8</ele>
        <time>2017-12-25T13:16:27Z</time>
      </trkpt>
      <trkpt lat="62.633420772081" lon="17.983375586271">
        <ele>88</ele>
        <time>2017-12-25T13:16:28Z</time>
      </trkpt>
      <trkpt lat="62.633440218089" lon="17.983307692881">
        <ele>88</ele>
        <time>2017-12-25T13:16:29Z</time>
      </trkpt>
      <trkpt lat="62.633455724604" lon="17.983239967129">
        <ele>88.2</ele>
        <time>2017-12-25T13:16:30Z</time>
      </trkpt>
      <trkpt lat="62.633470979662" lon="17.983172995748">
        <ele>88</ele>
        <time>2017-12-25T13:16:31Z</time>
      </trkpt>
      <trkpt lat="62.633484139245" lon="17.983102252512">
        <ele>88.2</ele>
        <time>2017-12-25T13:16:32Z</time>
      </trkpt>
      <trkpt lat="62.633500232493" lon="17.983030000534">
        <ele>88.2</ele>
        <time>2017-12-25T13:16:33Z</time>
      </trkpt>
      <trkpt lat="62.633514984637" lon="17.982963364429">
        <ele>88</ele>
        <time>2017-12-25T13:16:34Z</time>
      </trkpt>
      <trkpt lat="62.633534095369" lon="17.982890190442">
        <ele>88.2</ele>
        <time>2017-12-25T13:16:35Z</time>
      </trkpt>
      <trkpt lat="62.633554714843" lon="17.98282665564">
        <ele>88.2</ele>
        <time>2017-12-25T13:16:36Z</time>
      </trkpt>
      <trkpt lat="62.633574160851" lon="17.98275792406">
        <ele>88.2</ele>
        <time>2017-12-25T13:16:37Z</time>
      </trkpt>
      <trkpt lat="62.633584722045" lon="17.982683157512">
        <ele>88.2</ele>
        <time>2017-12-25T13:16:38Z</time>
      </trkpt>
      <trkpt lat="62.633598468361" lon="17.982607133679">
        <ele>88</ele>
        <time>2017-12-25T13:16:39Z</time>
      </trkpt>
      <trkpt lat="62.633609867745" lon="17.982529852561">
        <ele>88.2</ele>
        <time>2017-12-25T13:16:40Z</time>
      </trkpt>
      <trkpt lat="62.63361866874" lon="17.982459444601">
        <ele>88</ele>
        <time>2017-12-25T13:16:41Z</time>
      </trkpt>
      <trkpt lat="62.633629062296" lon="17.98238241494">
        <ele>87.8</ele>
        <time>2017-12-25T13:16:42Z</time>
      </trkpt>
      <trkpt lat="62.633631073952" lon="17.982301864881">
        <ele>88</ele>
        <time>2017-12-25T13:16:43Z</time>
      </trkpt>
      <trkpt lat="62.633639120576" lon="17.982226763057">
        <ele>88</ele>
        <time>2017-12-25T13:16:44Z</time>
      </trkpt>
      <trkpt lat="62.633649430313" lon="17.982143111695">
        <ele>87.8</ele>
        <time>2017-12-25T13:16:45Z</time>
      </trkpt>
      <trkpt lat="62.633656722566" lon="17.982072200821">
        <ele>88</ele>
        <time>2017-12-25T13:16:46Z</time>
      </trkpt>
      <trkpt lat="62.633665020647" lon="17.982004558888">
        <ele>88</ele>
        <time>2017-12-25T13:16:47Z</time>
      </trkpt>
      <trkpt lat="62.633669882149" lon="17.981933648014">
        <ele>88</ele>
        <time>2017-12-25T13:16:48Z</time>
      </trkpt>
      <trkpt lat="62.633676252393" lon="17.981870783764">
        <ele>88</ele>
        <time>2017-12-25T13:16:49Z</time>
      </trkpt>
      <trkpt lat="62.633681616809" lon="17.981802555098">
        <ele>88.2</ele>
        <time>2017-12-25T13:16:50Z</time>
      </trkpt>
      <trkpt lat="62.633684969569" lon="17.981744636169">
        <ele>88.2</ele>
        <time>2017-12-25T13:16:51Z</time>
      </trkpt>
      <trkpt lat="62.63369242946" lon="17.981676156046">
        <ele>88.4</ele>
        <time>2017-12-25T13:16:52Z</time>
      </trkpt>
      <trkpt lat="62.633700727541" lon="17.981602562964">
        <ele>88.4</ele>
        <time>2017-12-25T13:16:53Z</time>
      </trkpt>
      <trkpt lat="62.633709277079" lon="17.981540788361">
        <ele>88.6</ele>
        <time>2017-12-25T13:16:54Z</time>
      </trkpt>
      <trkpt lat="62.633719419178" lon="17.981466692365">
        <ele>88.6</ele>
        <time>2017-12-25T13:16:55Z</time>
      </trkpt>
      <trkpt lat="62.633725789422" lon="17.981400726812">
        <ele>88.6</ele>
        <time>2017-12-25T13:16:56Z</time>
      </trkpt>
      <trkpt lat="62.633739619557" lon="17.981331408499">
        <ele>88.6</ele>
        <time>2017-12-25T13:16:57Z</time>
      </trkpt>
      <trkpt lat="62.63375445552" lon="17.981258485969">
        <ele>88.6</ele>
        <time>2017-12-25T13:16:58Z</time>
      </trkpt>
      <trkpt lat="62.633769123845" lon="17.981189838208">
        <ele>88.6</ele>
        <time>2017-12-25T13:16:59Z</time>
      </trkpt>
      <trkpt lat="62.633787228749" lon="17.981123872655">
        <ele>88.6</ele>
        <time>2017-12-25T13:17:00Z</time>
      </trkpt>
      <trkpt lat="62.633810027517" lon="17.981067881563">
        <ele>88.6</ele>
        <time>2017-12-25T13:17:01Z</time>
      </trkpt>
      <trkpt lat="62.633829557344" lon="17.981019182724">
        <ele>88.6</ele>
        <time>2017-12-25T13:17:02Z</time>
      </trkpt>
      <trkpt lat="62.633848416619" lon="17.980964029822">
        <ele>88.8</ele>
        <time>2017-12-25T13:17:03Z</time>
      </trkpt>
      <trkpt lat="62.633872556491" lon="17.980916001535">
        <ele>88.8</ele>
        <time>2017-12-25T13:17:04Z</time>
      </trkpt>
      <trkpt lat="62.633896864001" lon="17.980859758986">
        <ele>88.6</ele>
        <time>2017-12-25T13:17:05Z</time>
      </trkpt>
      <trkpt lat="62.63391287343" lon="17.980814412907">
        <ele>89</ele>
        <time>2017-12-25T13:17:06Z</time>
      </trkpt>
      <trkpt lat="62.633933325266" lon="17.980766468439">
        <ele>89.2</ele>
        <time>2017-12-25T13:17:07Z</time>
      </trkpt>
      <trkpt lat="62.63395226836" lon="17.980722547283">
        <ele>89.2</ele>
        <time>2017-12-25T13:17:08Z</time>
      </trkpt>
      <trkpt lat="62.633966936685" lon="17.980672255883">
        <ele>89.2</ele>
        <time>2017-12-25T13:17:09Z</time>
      </trkpt>
      <trkpt lat="62.63398579596" lon="17.98060377576">
        <ele>89.6</ele>
        <time>2017-12-25T13:17:10Z</time>
      </trkpt>
      <trkpt lat="62.634008343271" lon="17.980546108288">
        <ele>89.4</ele>
        <time>2017-12-25T13:17:11Z</time>
      </trkpt>
      <trkpt lat="62.634027537822" lon="17.980492883223">
        <ele>89.4</ele>
        <time>2017-12-25T13:17:12Z</time>
      </trkpt>
      <trkpt lat="62.634047905839" lon="17.980438736149">
        <ele>89.6</ele>
        <time>2017-12-25T13:17:13Z</time>
      </trkpt>
      <trkpt lat="62.634068525313" lon="17.980388612387">
        <ele>89.6</ele>
        <time>2017-12-25T13:17:14Z</time>
      </trkpt>
      <trkpt lat="62.634088809511" lon="17.980342763394">
        <ele>89.6</ele>
        <time>2017-12-25T13:17:15Z</time>
      </trkpt>
      <trkpt lat="62.634112530288" lon="17.980290460338">
        <ele>89.8</ele>
        <time>2017-12-25T13:17:16Z</time>
      </trkpt>
      <trkpt lat="62.634147734268" lon="17.980216867256">
        <ele>89.8</ele>
        <time>2017-12-25T13:17:18Z</time>
      </trkpt>
      <trkpt lat="62.634166509724" lon="17.980184429303">
        <ele>89.6</ele>
        <time>2017-12-25T13:17:19Z</time>
      </trkpt>
      <trkpt lat="62.634195511098" lon="17.980130952781">
        <ele>89.6</ele>
        <time>2017-12-25T13:17:20Z</time>
      </trkpt>
      <trkpt lat="62.6342171364" lon="17.980082840675">
        <ele>89.6</ele>
        <time>2017-12-25T13:17:21Z</time>
      </trkpt>
      <trkpt lat="62.6342422821" lon="17.980030621438">
        <ele>89.8</ele>
        <time>2017-12-25T13:17:22Z</time>
      </trkpt>
      <trkpt lat="62.634262482479" lon="17.979967924826">
        <ele>89.8</ele>
        <time>2017-12-25T13:17:23Z</time>
      </trkpt>
      <trkpt lat="62.634285532704" lon="17.979903216558">
        <ele>89.8</ele>
        <time>2017-12-25T13:17:24Z</time>
      </trkpt>
      <trkpt lat="62.634300620124" lon="17.979846638733">
        <ele>89.8</ele>
        <time>2017-12-25T13:17:25Z</time>
      </trkpt>
      <trkpt lat="62.63431520463" lon="17.979787211062">
        <ele>89.6</ele>
        <time>2017-12-25T13:17:26Z</time>
      </trkpt>
      <trkpt lat="62.634334147724" lon="17.979720574957">
        <ele>89.6</ele>
        <time>2017-12-25T13:17:27Z</time>
      </trkpt>
      <trkpt lat="62.634347223488" lon="17.979655447594">
        <ele>89.6</ele>
        <time>2017-12-25T13:17:28Z</time>
      </trkpt>
      <trkpt lat="62.634361807994" lon="17.979584955815">
        <ele>89.6</ele>
        <time>2017-12-25T13:17:29Z</time>
      </trkpt>
      <trkpt lat="62.63437555431" lon="17.979508596706">
        <ele>89.8</ele>
        <time>2017-12-25T13:17:30Z</time>
      </trkpt>
      <trkpt lat="62.63438980354" lon="17.979431399407">
        <ele>89.8</ele>
        <time>2017-12-25T13:17:31Z</time>
      </trkpt>
      <trkpt lat="62.63440489096" lon="17.97936493094">
        <ele>89.8</ele>
        <time>2017-12-25T13:17:32Z</time>
      </trkpt>
      <trkpt lat="62.634419056371" lon="17.97929703755">
        <ele>89.8</ele>
        <time>2017-12-25T13:17:33Z</time>
      </trkpt>
      <trkpt lat="62.634431042488" lon="17.979234424757">
        <ele>89.8</ele>
        <time>2017-12-25T13:17:34Z</time>
      </trkpt>
      <trkpt lat="62.634446381365" lon="17.979163849159">
        <ele>89.8</ele>
        <time>2017-12-25T13:17:35Z</time>
      </trkpt>
      <trkpt lat="62.634462558432" lon="17.979085646032">
        <ele>89.8</ele>
        <time>2017-12-25T13:17:36Z</time>
      </trkpt>
      <trkpt lat="62.634477059119" lon="17.979019848117">
        <ele>89.8</ele>
        <time>2017-12-25T13:17:37Z</time>
      </trkpt>
      <trkpt lat="62.634500612258" lon="17.978899986947">
        <ele>89.8</ele>
        <time>2017-12-25T13:17:39Z</time>
      </trkpt>
      <trkpt lat="62.634514610031" lon="17.9788569878">
        <ele>89.8</ele>
        <time>2017-12-25T13:17:40Z</time>
      </trkpt>
      <trkpt lat="62.63454235412" lon="17.978819017793">
        <ele>89.8</ele>
        <time>2017-12-25T13:17:41Z</time>
      </trkpt>
      <trkpt lat="62.634569595295" lon="17.978797979224">
        <ele>89.8</ele>
        <time>2017-12-25T13:17:42Z</time>
      </trkpt>
      <trkpt lat="62.634592226425" lon="17.978772246791">
        <ele>89.8</ele>
        <time>2017-12-25T13:17:43Z</time>
      </trkpt>
      <trkpt lat="62.634617288306" lon="17.978765792728">
        <ele>89.6</ele>
        <time>2017-12-25T13:17:44Z</time>
      </trkpt>
      <trkpt lat="62.634643020739" lon="17.978772582067">
        <ele>89.8</ele>
        <time>2017-12-25T13:17:45Z</time>
      </trkpt>
      <trkpt lat="62.634674285226" lon="17.978786915116">
        <ele>89.6</ele>
        <time>2017-12-25T13:17:46Z</time>
      </trkpt>
      <trkpt lat="62.634706052627" lon="17.978805942029">
        <ele>89.6</ele>
        <time>2017-12-25T13:17:47Z</time>
      </trkpt>
      <trkpt lat="62.634735305458" lon="17.978823627838">
        <ele>89.6</ele>
        <time>2017-12-25T13:17:48Z</time>
      </trkpt>
      <trkpt lat="62.634770090343" lon="17.978843325303">
        <ele>89.4</ele>
        <time>2017-12-25T13:17:49Z</time>
      </trkpt>
      <trkpt lat="62.634805042866" lon="17.978859586189">
        <ele>89.2</ele>
        <time>2017-12-25T13:17:50Z</time>
      </trkpt>
      <trkpt lat="62.634834798611" lon="17.978868973917">
        <ele>89.2</ele>
        <time>2017-12-25T13:17:51Z</time>
      </trkpt>
      <trkpt lat="62.634869583496" lon="17.978886408269">
        <ele>89</ele>
        <time>2017-12-25T13:17:52Z</time>
      </trkpt>
      <trkpt lat="62.634903194915" lon="17.978890263943">
        <ele>89</ele>
        <time>2017-12-25T13:17:53Z</time>
      </trkpt>
      <trkpt lat="62.63493546523" lon="17.978908704123">
        <ele>88.8</ele>
        <time>2017-12-25T13:17:54Z</time>
      </trkpt>
      <trkpt lat="62.634960862387" lon="17.978921947525">
        <ele>88.8</ele>
        <time>2017-12-25T13:17:55Z</time>
      </trkpt>
      <trkpt lat="62.634986343363" lon="17.978933011633">
        <ele>88.8</ele>
        <time>2017-12-25T13:17:56Z</time>
      </trkpt>
      <trkpt lat="62.635014003633" lon="17.978942315542">
        <ele>88.8</ele>
        <time>2017-12-25T13:17:57Z</time>
      </trkpt>
      <trkpt lat="62.635034120193" lon="17.978947847596">
        <ele>88.6</ele>
        <time>2017-12-25T13:17:58Z</time>
      </trkpt>
      <trkpt lat="62.635068821259" lon="17.978966874509">
        <ele>88.8</ele>
        <time>2017-12-25T13:17:59Z</time>
      </trkpt>
      <trkpt lat="62.635097403538" lon="17.978971568373">
        <ele>88.6</ele>
        <time>2017-12-25T13:18:00Z</time>
      </trkpt>
      <trkpt lat="62.635132272242" lon="17.978981123739">
        <ele>88.6</ele>
        <time>2017-12-25T13:18:01Z</time>
      </trkpt>
      <trkpt lat="62.635166721851" lon="17.978986739612">
        <ele>88.6</ele>
        <time>2017-12-25T13:18:02Z</time>
      </trkpt>
      <trkpt lat="62.63519865689" lon="17.978995372969">
        <ele>88.6</ele>
        <time>2017-12-25T13:18:03Z</time>
      </trkpt>
      <trkpt lat="62.635233693232" lon="17.979003335774">
        <ele>88.4</ele>
        <time>2017-12-25T13:18:04Z</time>
      </trkpt>
      <trkpt lat="62.635266717918" lon="17.979009286923">
        <ele>88</ele>
        <time>2017-12-25T13:18:05Z</time>
      </trkpt>
      <trkpt lat="62.635303179183" lon="17.979014735158">
        <ele>87.4</ele>
        <time>2017-12-25T13:18:06Z</time>
      </trkpt>
      <trkpt lat="62.635336874421" lon="17.97901708209">
        <ele>87</ele>
        <time>2017-12-25T13:18:07Z</time>
      </trkpt>
      <trkpt lat="62.63536880946" lon="17.979017668823">
        <ele>86.4</ele>
        <time>2017-12-25T13:18:08Z</time>
      </trkpt>
      <trkpt lat="62.635400576861" lon="17.979012136769">
        <ele>86.2</ele>
        <time>2017-12-25T13:18:09Z</time>
      </trkpt>
      <trkpt lat="62.635434607375" lon="17.979006688534">
        <ele>86.2</ele>
        <time>2017-12-25T13:18:10Z</time>
      </trkpt>
      <trkpt lat="62.635473247934" lon="17.979004593059">
        <ele>86</ele>
        <time>2017-12-25T13:18:11Z</time>
      </trkpt>
      <trkpt lat="62.635510715027" lon="17.979003084317">
        <ele>85.8</ele>
        <time>2017-12-25T13:18:12Z</time>
      </trkpt>
      <trkpt lat="62.635556312563" lon="17.979011382398">
        <ele>85.8</ele>
        <time>2017-12-25T13:18:13Z</time>
      </trkpt>
      <trkpt lat="62.635599646986" lon="17.97901289114">
        <ele>85.8</ele>
        <time>2017-12-25T13:18:14Z</time>
      </trkpt>
      <trkpt lat="62.635638203726" lon="17.979012807321">
        <ele>85.6</ele>
        <time>2017-12-25T13:18:15Z</time>
      </trkpt>
      <trkpt lat="62.635680280864" lon="17.979014735158">
        <ele>85.8</ele>
        <time>2017-12-25T13:18:16Z</time>
      </trkpt>
      <trkpt lat="62.635721938907" lon="17.979023117058">
        <ele>85.8</ele>
        <time>2017-12-25T13:18:17Z</time>
      </trkpt>
      <trkpt lat="62.635757981077" lon="17.979025044895">
        <ele>85.8</ele>
        <time>2017-12-25T13:18:18Z</time>
      </trkpt>
      <trkpt lat="62.635795615808" lon="17.979028230017">
        <ele>85.6</ele>
        <time>2017-12-25T13:18:19Z</time>
      </trkpt>
      <trkpt lat="62.635829897779" lon="17.979033678252">
        <ele>85.6</ele>
        <time>2017-12-25T13:18:20Z</time>
      </trkpt>
      <trkpt lat="62.635862168094" lon="17.979038623573">
        <ele>85.4</ele>
        <time>2017-12-25T13:18:21Z</time>
      </trkpt>
      <trkpt lat="62.635888822536" lon="17.979052202251">
        <ele>85.4</ele>
        <time>2017-12-25T13:18:22Z</time>
      </trkpt>
      <trkpt lat="62.635915141702" lon="17.979061673798">
        <ele>85.2</ele>
        <time>2017-12-25T13:18:23Z</time>
      </trkpt>
      <trkpt lat="62.635935342081" lon="17.979074833381">
        <ele>85.4</ele>
        <time>2017-12-25T13:18:24Z</time>
      </trkpt>
      <trkpt lat="62.635951519148" lon="17.979082796186">
        <ele>85.4</ele>
        <time>2017-12-25T13:18:25Z</time>
      </trkpt>
      <trkpt lat="62.63597062988" lon="17.979090423715">
        <ele>85.4</ele>
        <time>2017-12-25T13:18:26Z</time>
      </trkpt>
      <trkpt lat="62.635990578802" lon="17.979099895262">
        <ele>85.4</ele>
        <time>2017-12-25T13:18:27Z</time>
      </trkpt>
      <trkpt lat="62.636006085317" lon="17.979115904691">
        <ele>85.6</ele>
        <time>2017-12-25T13:18:28Z</time>
      </trkpt>
      <trkpt lat="62.636021675651" lon="17.979132081758">
        <ele>85.6</ele>
        <time>2017-12-25T13:18:29Z</time>
      </trkpt>
      <trkpt lat="62.636014718674" lon="17.979155551078">
        <ele>85.8</ele>
        <time>2017-12-25T13:18:30Z</time>
      </trkpt>
      <trkpt lat="62.636014634855" lon="17.979178182208">
        <ele>85.8</ele>
        <time>2017-12-25T13:18:31Z</time>
      </trkpt>
      <trkpt lat="62.636011030638" lon="17.979208105591">
        <ele>85.8</ele>
        <time>2017-12-25T13:18:32Z</time>
      </trkpt>
      <trkpt lat="62.636006839688" lon="17.979223947382">
        <ele>85.8</ele>
        <time>2017-12-25T13:18:33Z</time>
      </trkpt>
      <trkpt lat="62.636005247127" lon="17.979245824141">
        <ele>85.8</ele>
        <time>2017-12-25T13:18:35Z</time>
      </trkpt>
      <trkpt lat="62.636005079489" lon="17.979261665932">
        <ele>85.8</ele>
        <time>2017-12-25T13:18:36Z</time>
      </trkpt>
      <trkpt lat="62.636003486928" lon="17.979302318147">
        <ele>85.6</ele>
        <time>2017-12-25T13:18:37Z</time>
      </trkpt>
      <trkpt lat="62.63600331929" lon="17.979348753873">
        <ele>85.6</ele>
        <time>2017-12-25T13:18:38Z</time>
      </trkpt>
      <trkpt lat="62.635998457788" lon="17.979414300331">
        <ele>85.6</ele>
        <time>2017-12-25T13:18:39Z</time>
      </trkpt>
      <trkpt lat="62.635998625426" lon="17.979483283368">
        <ele>85.6</ele>
        <time>2017-12-25T13:18:40Z</time>
      </trkpt>
      <trkpt lat="62.635992925734" lon="17.979590739326">
        <ele>85.2</ele>
        <time>2017-12-25T13:18:41Z</time>
      </trkpt>
      <trkpt lat="62.635985801119" lon="17.97973876368">
        <ele>84.8</ele>
        <time>2017-12-25T13:18:42Z</time>
      </trkpt>
      <trkpt lat="62.635985465843" lon="17.979885027835">
        <ele>84.2</ele>
        <time>2017-12-25T13:18:43Z</time>
      </trkpt>
      <trkpt lat="62.635989656793" lon="17.980035650578">
        <ele>83.2</ele>
        <time>2017-12-25T13:18:44Z</time>
      </trkpt>
      <trkpt lat="62.636001307634" lon="17.980173281376">
        <ele>82.2</ele>
        <time>2017-12-25T13:18:45Z</time>
      </trkpt>
      <trkpt lat="62.636019915452" lon="17.98032717306">
        <ele>81.4</ele>
        <time>2017-12-25T13:18:46Z</time>
      </trkpt>
      <trkpt lat="62.636043384772" lon="17.980473521034">
        <ele>80.4</ele>
        <time>2017-12-25T13:18:47Z</time>
      </trkpt>
      <trkpt lat="62.636063166056" lon="17.980600423">
        <ele>79.6</ele>
        <time>2017-12-25T13:18:48Z</time>
      </trkpt>
      <trkpt lat="62.636087054471" lon="17.980731599735">
        <ele>79</ele>
        <time>2017-12-25T13:18:49Z</time>
      </trkpt>
      <trkpt lat="62.63610893123" lon="17.980848862516">
        <ele>78.8</ele>
        <time>2017-12-25T13:18:50Z</time>
      </trkpt>
      <trkpt lat="62.636132065274" lon="17.980974926292">
        <ele>78.6</ele>
        <time>2017-12-25T13:18:51Z</time>
      </trkpt>
      <trkpt lat="62.636145392495" lon="17.981056565998">
        <ele>78.4</ele>
        <time>2017-12-25T13:18:52Z</time>
      </trkpt>
      <trkpt lat="62.636165257598" lon="17.981200064126">
        <ele>78.2</ele>
        <time>2017-12-25T13:18:53Z</time>
      </trkpt>
      <trkpt lat="62.636176992258" lon="17.981315650527">
        <ele>78</ele>
        <time>2017-12-25T13:18:54Z</time>
      </trkpt>
      <trkpt lat="62.636186799081" lon="17.981410198359">
        <ele>77.8</ele>
        <time>2017-12-25T13:18:55Z</time>
      </trkpt>
      <trkpt lat="62.63619861756" lon="17.981513463367">
        <ele>77.6</ele>
        <time>2017-12-25T13:18:56Z</time>
      </trkpt>
      <trkpt lat="62.636207921469" lon="17.981608178837">
        <ele>77.6</ele>
        <time>2017-12-25T13:18:57Z</time>
      </trkpt>
      <trkpt lat="62.636216722464" lon="17.981699625366">
        <ele>77.4</ele>
        <time>2017-12-25T13:18:58Z</time>
      </trkpt>
      <trkpt lat="62.636222338337" lon="17.981806746048">
        <ele>77.2</ele>
        <time>2017-12-25T13:18:59Z</time>
      </trkpt>
      <trkpt lat="62.636231390789" lon="17.981892744342">
        <ele>77.2</ele>
        <time>2017-12-25T13:19:00Z</time>
      </trkpt>
      <trkpt lat="62.636245640019" lon="17.98197254003">
        <ele>77.2</ele>
        <time>2017-12-25T13:19:01Z</time>
      </trkpt>
      <trkpt lat="62.636251674987" lon="17.98207060826">
        <ele>77.4</ele>
        <time>2017-12-25T13:19:02Z</time>
      </trkpt>
      <trkpt lat="62.636263242009" lon="17.982153086156">
        <ele>77.8</ele>
        <time>2017-12-25T13:19:03Z</time>
      </trkpt>
      <trkpt lat="62.636274725212" lon="17.982231876016">
        <ele>78</ele>
        <time>2017-12-25T13:19:04Z</time>
      </trkpt>
      <trkpt lat="62.636275647221" lon="17.982324244554">
        <ele>78.4</ele>
        <time>2017-12-25T13:19:05Z</time>
      </trkpt>
      <trkpt lat="62.636281933646" lon="17.982405800441">
        <ele>78.6</ele>
        <time>2017-12-25T13:19:06Z</time>
      </trkpt>
      <trkpt lat="62.636287717157" lon="17.982475034935">
        <ele>78.4</ele>
        <time>2017-12-25T13:19:07Z</time>
      </trkpt>
      <trkpt lat="62.636285956958" lon="17.982565475636">
        <ele>78.4</ele>
        <time>2017-12-25T13:19:08Z</time>
      </trkpt>
      <trkpt lat="62.636287298062" lon="17.982645774238">
        <ele>78.4</ele>
        <time>2017-12-25T13:19:09Z</time>
      </trkpt>
      <trkpt lat="62.636284280578" lon="17.982715846922">
        <ele>78.2</ele>
        <time>2017-12-25T13:19:10Z</time>
      </trkpt>
      <trkpt lat="62.636277575058" lon="17.982802264311">
        <ele>78.4</ele>
        <time>2017-12-25T13:19:11Z</time>
      </trkpt>
      <trkpt lat="62.636279754352" lon="17.982869235692">
        <ele>78.6</ele>
        <time>2017-12-25T13:19:12Z</time>
      </trkpt>
      <trkpt lat="62.636277994153" lon="17.982955904538">
        <ele>78.6</ele>
        <time>2017-12-25T13:19:13Z</time>
      </trkpt>
      <trkpt lat="62.636282268922" lon="17.98302530667">
        <ele>78.6</ele>
        <time>2017-12-25T13:19:14Z</time>
      </trkpt>
      <trkpt lat="62.636286711329" lon="17.983091272223">
        <ele>78.6</ele>
        <time>2017-12-25T13:19:15Z</time>
      </trkpt>
      <trkpt lat="62.636287717157" lon="17.983174923585">
        <ele>78.6</ele>
        <time>2017-12-25T13:19:16Z</time>
      </trkpt>
      <trkpt lat="62.63628998027" lon="17.983251366513">
        <ele>78.6</ele>
        <time>2017-12-25T13:19:17Z</time>
      </trkpt>
      <trkpt lat="62.6362874657" lon="17.983319259903">
        <ele>78.8</ele>
        <time>2017-12-25T13:19:18Z</time>
      </trkpt>
      <trkpt lat="62.63628998027" lon="17.983393523537">
        <ele>78.8</ele>
        <time>2017-12-25T13:19:19Z</time>
      </trkpt>
      <trkpt lat="62.636287633338" lon="17.983436355046">
        <ele>78.8</ele>
        <time>2017-12-25T13:19:20Z</time>
      </trkpt>
      <trkpt lat="62.636281346913" lon="17.983504583712">
        <ele>78.8</ele>
        <time>2017-12-25T13:19:21Z</time>
      </trkpt>
      <trkpt lat="62.636274976669" lon="17.983561329175">
        <ele>78.8</ele>
        <time>2017-12-25T13:19:22Z</time>
      </trkpt>
      <trkpt lat="62.636272043004" lon="17.983614638059">
        <ele>78.8</ele>
        <time>2017-12-25T13:19:23Z</time>
      </trkpt>
      <trkpt lat="62.636264415475" lon="17.983674568644">
        <ele>79</ele>
        <time>2017-12-25T13:19:24Z</time>
      </trkpt>
      <trkpt lat="62.636256536489" lon="17.983725362958">
        <ele>79.2</ele>
        <time>2017-12-25T13:19:25Z</time>
      </trkpt>
      <trkpt lat="62.636241700526" lon="17.983775235263">
        <ele>79.4</ele>
        <time>2017-12-25T13:19:26Z</time>
      </trkpt>
      <trkpt lat="62.636234743549" lon="17.983825861939">
        <ele>79.6</ele>
        <time>2017-12-25T13:19:27Z</time>
      </trkpt>
      <trkpt lat="62.636225691097" lon="17.983892162768">
        <ele>79.8</ele>
        <time>2017-12-25T13:19:28Z</time>
      </trkpt>
      <trkpt lat="62.63621957231" lon="17.98393893377">
        <ele>79.6</ele>
        <time>2017-12-25T13:19:29Z</time>
      </trkpt>
      <trkpt lat="62.636210687496" lon="17.983997858527">
        <ele>79.8</ele>
        <time>2017-12-25T13:19:30Z</time>
      </trkpt>
      <trkpt lat="62.636203562881" lon="17.984064494632">
        <ele>79.8</ele>
        <time>2017-12-25T13:19:31Z</time>
      </trkpt>
      <trkpt lat="62.63620113213" lon="17.984109505435">
        <ele>79.8</ele>
        <time>2017-12-25T13:19:32Z</time>
      </trkpt>
      <trkpt lat="62.636192414954" lon="17.984172537323">
        <ele>79.8</ele>
        <time>2017-12-25T13:19:33Z</time>
      </trkpt>
      <trkpt lat="62.636192079678" lon="17.984223247818">
        <ele>80</ele>
        <time>2017-12-25T13:19:34Z</time>
      </trkpt>
      <trkpt lat="62.636186715262" lon="17.984285441516">
        <ele>80</ele>
        <time>2017-12-25T13:19:35Z</time>
      </trkpt>
      <trkpt lat="62.636184787425" lon="17.984350317422">
        <ele>80.2</ele>
        <time>2017-12-25T13:19:36Z</time>
      </trkpt>
      <trkpt lat="62.636183278683" lon="17.98440748198">
        <ele>80.4</ele>
        <time>2017-12-25T13:19:37Z</time>
      </trkpt>
      <trkpt lat="62.636183194864" lon="17.984469927135">
        <ele>80.6</ele>
        <time>2017-12-25T13:19:38Z</time>
      </trkpt>
      <trkpt lat="62.63618353014" lon="17.984513010101">
        <ele>80.6</ele>
        <time>2017-12-25T13:19:39Z</time>
      </trkpt>
      <trkpt lat="62.636179087733" lon="17.984572856867">
        <ele>80.6</ele>
        <time>2017-12-25T13:19:40Z</time>
      </trkpt>
      <trkpt lat="62.636176154068" lon="17.984634715289">
        <ele>80.6</ele>
        <time>2017-12-25T13:19:41Z</time>
      </trkpt>
      <trkpt lat="62.636171544023" lon="17.984689030001">
        <ele>80.6</ele>
        <time>2017-12-25T13:19:42Z</time>
      </trkpt>
      <trkpt lat="62.636165425236" lon="17.984746865111">
        <ele>80.6</ele>
        <time>2017-12-25T13:19:43Z</time>
      </trkpt>
      <trkpt lat="62.636167101616" lon="17.984788355516">
        <ele>80.8</ele>
        <time>2017-12-25T13:19:44Z</time>
      </trkpt>
      <trkpt lat="62.636162826847" lon="17.984848789015">
        <ele>80.8</ele>
        <time>2017-12-25T13:19:45Z</time>
      </trkpt>
      <trkpt lat="62.636162240114" lon="17.984906875582">
        <ele>81</ele>
        <time>2017-12-25T13:19:46Z</time>
      </trkpt>
      <trkpt lat="62.636163329761" lon="17.984952556937">
        <ele>81.2</ele>
        <time>2017-12-25T13:19:47Z</time>
      </trkpt>
      <trkpt lat="62.636162491571" lon="17.985005530545">
        <ele>81.2</ele>
        <time>2017-12-25T13:19:48Z</time>
      </trkpt>
      <trkpt lat="62.636155283137" lon="17.985054061746">
        <ele>81.4</ele>
        <time>2017-12-25T13:19:49Z</time>
      </trkpt>
      <trkpt lat="62.636150337816" lon="17.985110388114">
        <ele>81.4</ele>
        <time>2017-12-25T13:19:50Z</time>
      </trkpt>
      <trkpt lat="62.636145895409" lon="17.985166379206">
        <ele>81.4</ele>
        <time>2017-12-25T13:19:51Z</time>
      </trkpt>
      <trkpt lat="62.636145727771" lon="17.985206528507">
        <ele>81.6</ele>
        <time>2017-12-25T13:19:52Z</time>
      </trkpt>
      <trkpt lat="62.636141536821" lon="17.985259250658">
        <ele>81.6</ele>
        <time>2017-12-25T13:19:53Z</time>
      </trkpt>
      <trkpt lat="62.636138016423" lon="17.985303423271">
        <ele>81.8</ele>
        <time>2017-12-25T13:19:54Z</time>
      </trkpt>
      <trkpt lat="62.636131059446" lon="17.985362096571">
        <ele>81.8</ele>
        <time>2017-12-25T13:19:55Z</time>
      </trkpt>
      <trkpt lat="62.636122845184" lon="17.985419847862">
        <ele>82</ele>
        <time>2017-12-25T13:19:56Z</time>
      </trkpt>
      <trkpt lat="62.636116558759" lon="17.985468798158">
        <ele>82</ele>
        <time>2017-12-25T13:19:57Z</time>
      </trkpt>
      <trkpt lat="62.636108679773" lon="17.98553233296">
        <ele>82</ele>
        <time>2017-12-25T13:19:58Z</time>
      </trkpt>
      <trkpt lat="62.6361030639" lon="17.985566614931">
        <ele>82.2</ele>
        <time>2017-12-25T13:19:59Z</time>
      </trkpt>
      <trkpt lat="62.636091748335" lon="17.985615146132">
        <ele>82.2</ele>
        <time>2017-12-25T13:20:00Z</time>
      </trkpt>
      <trkpt lat="62.636077499105" lon="17.985665018437">
        <ele>82.2</ele>
        <time>2017-12-25T13:20:01Z</time>
      </trkpt>
      <trkpt lat="62.636065261531" lon="17.985703826634">
        <ele>82.2</ele>
        <time>2017-12-25T13:20:02Z</time>
      </trkpt>
      <trkpt lat="62.63605193431" lon="17.98574439503">
        <ele>82.4</ele>
        <time>2017-12-25T13:20:03Z</time>
      </trkpt>
      <trkpt lat="62.636033997044" lon="17.98579468643">
        <ele>82.4</ele>
        <time>2017-12-25T13:20:04Z</time>
      </trkpt>
      <trkpt lat="62.636015221588" lon="17.985830980057">
        <ele>82.6</ele>
        <time>2017-12-25T13:20:05Z</time>
      </trkpt>
      <trkpt lat="62.635994350657" lon="17.985865513485">
        <ele>82.6</ele>
        <time>2017-12-25T13:20:06Z</time>
      </trkpt>
      <trkpt lat="62.635968618224" lon="17.985885546226">
        <ele>82.8</ele>
        <time>2017-12-25T13:20:07Z</time>
      </trkpt>
      <trkpt lat="62.635948417845" lon="17.985920079654">
        <ele>83</ele>
        <time>2017-12-25T13:20:08Z</time>
      </trkpt>
      <trkpt lat="62.635924361792" lon="17.985933574513">
        <ele>83</ele>
        <time>2017-12-25T13:20:09Z</time>
      </trkpt>
      <trkpt lat="62.635900976291" lon="17.985956205643">
        <ele>83.2</ele>
        <time>2017-12-25T13:20:10Z</time>
      </trkpt>
      <trkpt lat="62.63587842898" lon="17.985974729642">
        <ele>83.4</ele>
        <time>2017-12-25T13:20:11Z</time>
      </trkpt>
      <trkpt lat="62.635853367099" lon="17.986010520355">
        <ele>83.4</ele>
        <time>2017-12-25T13:20:12Z</time>
      </trkpt>
      <trkpt lat="62.635831322702" lon="17.986032145657">
        <ele>83.6</ele>
        <time>2017-12-25T13:20:13Z</time>
      </trkpt>
      <trkpt lat="62.635805338812" lon="17.986068104008">
        <ele>83.6</ele>
        <time>2017-12-25T13:20:14Z</time>
      </trkpt>
      <trkpt lat="62.63578874265" lon="17.986099284676">
        <ele>83.8</ele>
        <time>2017-12-25T13:20:15Z</time>
      </trkpt>
      <trkpt lat="62.635763764588" lon="17.986129208059">
        <ele>83.8</ele>
        <time>2017-12-25T13:20:16Z</time>
      </trkpt>
      <trkpt lat="62.635742474562" lon="17.986169944093">
        <ele>83.8</ele>
        <time>2017-12-25T13:20:17Z</time>
      </trkpt>
      <trkpt lat="62.635734176481" lon="17.986204393702">
        <ele>83.8</ele>
        <time>2017-12-25T13:20:18Z</time>
      </trkpt>
      <trkpt lat="62.635719340518" lon="17.986245381193">
        <ele>84.2</ele>
        <time>2017-12-25T13:20:19Z</time>
      </trkpt>
      <trkpt lat="62.635702911994" lon="17.986286368684">
        <ele>84.2</ele>
        <time>2017-12-25T13:20:20Z</time>
      </trkpt>
      <trkpt lat="62.635692099343" lon="17.986330960392">
        <ele>84.4</ele>
        <time>2017-12-25T13:20:21Z</time>
      </trkpt>
      <trkpt lat="62.635670054946" lon="17.986368259847">
        <ele>84.6</ele>
        <time>2017-12-25T13:20:22Z</time>
      </trkpt>
      <trkpt lat="62.635660667218" lon="17.986418551247">
        <ele>84.8</ele>
        <time>2017-12-25T13:20:23Z</time>
      </trkpt>
      <trkpt lat="62.635636275889" lon="17.986474039425">
        <ele>84.6</ele>
        <time>2017-12-25T13:20:24Z</time>
      </trkpt>
      <trkpt lat="62.635630492378" lon="17.986511422699">
        <ele>84.8</ele>
        <time>2017-12-25T13:20:25Z</time>
      </trkpt>
      <trkpt lat="62.635609872904" lon="17.986561714099">
        <ele>85</ele>
        <time>2017-12-25T13:20:26Z</time>
      </trkpt>
      <trkpt lat="62.635607358334" lon="17.986621057951">
        <ele>85.2</ele>
        <time>2017-12-25T13:20:27Z</time>
      </trkpt>
      <trkpt lat="62.63558673886" lon="17.986665901116">
        <ele>85.2</ele>
        <time>2017-12-25T13:20:28Z</time>
      </trkpt>
      <trkpt lat="62.635575423295" lon="17.986724490597">
        <ele>85.2</ele>
        <time>2017-12-25T13:20:29Z</time>
      </trkpt>
      <trkpt lat="62.635562515169" lon="17.986755419808">
        <ele>85.4</ele>
        <time>2017-12-25T13:20:30Z</time>
      </trkpt>
      <trkpt lat="62.635545583731" lon="17.986802945181">
        <ele>85.4</ele>
        <time>2017-12-25T13:20:31Z</time>
      </trkpt>
      <trkpt lat="62.635533849071" lon="17.986855164418">
        <ele>85.6</ele>
        <time>2017-12-25T13:20:32Z</time>
      </trkpt>
      <trkpt lat="62.635513145778" lon="17.986898163565">
        <ele>85.6</ele>
        <time>2017-12-25T13:20:33Z</time>
      </trkpt>
      <trkpt lat="62.63549789072" lon="17.98694971225">
        <ele>85.8</ele>
        <time>2017-12-25T13:20:34Z</time>
      </trkpt>
      <trkpt lat="62.63547777416" lon="17.986991370293">
        <ele>85.8</ele>
        <time>2017-12-25T13:20:35Z</time>
      </trkpt>
      <trkpt lat="62.635464111663" lon="17.987039566218">
        <ele>86</ele>
        <time>2017-12-25T13:20:36Z</time>
      </trkpt>
      <trkpt lat="62.635447515501" lon="17.987075021655">
        <ele>86.2</ele>
        <time>2017-12-25T13:20:37Z</time>
      </trkpt>
      <trkpt lat="62.635425135828" lon="17.987114248947">
        <ele>86.2</ele>
        <time>2017-12-25T13:20:38Z</time>
      </trkpt>
      <trkpt lat="62.635413904082" lon="17.987148698556">
        <ele>86.4</ele>
        <time>2017-12-25T13:20:39Z</time>
      </trkpt>
      <trkpt lat="62.635396218273" lon="17.987185076002">
        <ele>86.4</ele>
        <time>2017-12-25T13:20:40Z</time>
      </trkpt>
      <trkpt lat="62.635376017894" lon="17.987214747928">
        <ele>86.6</ele>
        <time>2017-12-25T13:20:41Z</time>
      </trkpt>
      <trkpt lat="62.635353889678" lon="17.987256154514">
        <ele>86.6</ele>
        <time>2017-12-25T13:20:42Z</time>
      </trkpt>
      <trkpt lat="62.635345256321" lon="17.987292867236">
        <ele>86.6</ele>
        <time>2017-12-25T13:20:43Z</time>
      </trkpt>
      <trkpt lat="62.635320781173" lon="17.987332178347">
        <ele>86.6</ele>
        <time>2017-12-25T13:20:44Z</time>
      </trkpt>
      <trkpt lat="62.635305693753" lon="17.987360509169">
        <ele>86.8</ele>
        <time>2017-12-25T13:20:45Z</time>
      </trkpt>
      <trkpt lat="62.635285661012" lon="17.987399065909">
        <ele>86.8</ele>
        <time>2017-12-25T13:20:46Z</time>
      </trkpt>
      <trkpt lat="62.635266969375" lon="17.987421110306">
        <ele>86.8</ele>
        <time>2017-12-25T13:20:47Z</time>
      </trkpt>
      <trkpt lat="62.63525146286" lon="17.987463774177">
        <ele>87</ele>
        <time>2017-12-25T13:20:48Z</time>
      </trkpt>
      <trkpt lat="62.635226820074" lon="17.98749788851">
        <ele>87.2</ele>
        <time>2017-12-25T13:20:49Z</time>
      </trkpt>
      <trkpt lat="62.635207541704" lon="17.98753393068">
        <ele>87.2</ele>
        <time>2017-12-25T13:20:50Z</time>
      </trkpt>
      <trkpt lat="62.635184072384" lon="17.987559663113">
        <ele>87.6</ele>
        <time>2017-12-25T13:20:51Z</time>
      </trkpt>
      <trkpt lat="62.635168984964" lon="17.987602746079">
        <ele>87.6</ele>
        <time>2017-12-25T13:20:52Z</time>
      </trkpt>
      <trkpt lat="62.635146772929" lon="17.987628394693">
        <ele>87.8</ele>
        <time>2017-12-25T13:20:53Z</time>
      </trkpt>
      <trkpt lat="62.635130679681" lon="17.987662844302">
        <ele>88</ele>
        <time>2017-12-25T13:20:54Z</time>
      </trkpt>
      <trkpt lat="62.635103270868" lon="17.987689750201">
        <ele>88.2</ele>
        <time>2017-12-25T13:20:55Z</time>
      </trkpt>
      <trkpt lat="62.635085417421" lon="17.987725792371">
        <ele>88.2</ele>
        <time>2017-12-25T13:20:56Z</time>
      </trkpt>
      <trkpt lat="62.635061445187" lon="17.987749261691">
        <ele>88.6</ele>
        <time>2017-12-25T13:20:57Z</time>
      </trkpt>
      <trkpt lat="62.635049542889" lon="17.987784381852">
        <ele>88.6</ele>
        <time>2017-12-25T13:20:58Z</time>
      </trkpt>
      <trkpt lat="62.635024816284" lon="17.987818160909">
        <ele>88.6</ele>
        <time>2017-12-25T13:20:59Z</time>
      </trkpt>
      <trkpt lat="62.63501090233" lon="17.987851688509">
        <ele>88.6</ele>
        <time>2017-12-25T13:21:00Z</time>
      </trkpt>
      <trkpt lat="62.634983996431" lon="17.987884797014">
        <ele>88.6</ele>
        <time>2017-12-25T13:21:01Z</time>
      </trkpt>
      <trkpt lat="62.634963712233" lon="17.98791530713">
        <ele>88.6</ele>
        <time>2017-12-25T13:21:02Z</time>
      </trkpt>
      <trkpt lat="62.634940913465" lon="17.987938105898">
        <ele>88.8</ele>
        <time>2017-12-25T13:21:03Z</time>
      </trkpt>
      <trkpt lat="62.634913504652" lon="17.987961742856">
        <ele>88.8</ele>
        <time>2017-12-25T13:21:04Z</time>
      </trkpt>
      <trkpt lat="62.634892885178" lon="17.987987056194">
        <ele>89</ele>
        <time>2017-12-25T13:21:05Z</time>
      </trkpt>
      <trkpt lat="62.634866817469" lon="17.988011531342">
        <ele>89</ele>
        <time>2017-12-25T13:21:06Z</time>
      </trkpt>
      <trkpt lat="62.634836642629" lon="17.988035755033">
        <ele>89.2</ele>
        <time>2017-12-25T13:21:07Z</time>
      </trkpt>
      <trkpt lat="62.63481392768" lon="17.98805696124">
        <ele>89.2</ele>
        <time>2017-12-25T13:21:08Z</time>
      </trkpt>
      <trkpt lat="62.634781070632" lon="17.988069953185">
        <ele>89.4</ele>
        <time>2017-12-25T13:21:09Z</time>
      </trkpt>
      <trkpt lat="62.63475944533" lon="17.988085711157">
        <ele>89.6</ele>
        <time>2017-12-25T13:21:10Z</time>
      </trkpt>
      <trkpt lat="62.634727761748" lon="17.98808713608">
        <ele>89.8</ele>
        <time>2017-12-25T13:21:11Z</time>
      </trkpt>
      <trkpt lat="62.634703118962" lon="17.988101804405">
        <ele>89.8</ele>
        <time>2017-12-25T13:21:12Z</time>
      </trkpt>
      <trkpt lat="62.634679901099" lon="17.988097361998">
        <ele>90</ele>
        <time>2017-12-25T13:21:13Z</time>
      </trkpt>
      <trkpt lat="62.634649893897" lon="17.988115131626">
        <ele>90.2</ele>
        <time>2017-12-25T13:21:14Z</time>
      </trkpt>
      <trkpt lat="62.634627765681" lon="17.988116808006">
        <ele>90.4</ele>
        <time>2017-12-25T13:21:15Z</time>
      </trkpt>
      <trkpt lat="62.634598848126" lon="17.988125357544">
        <ele>90.4</ele>
        <time>2017-12-25T13:21:16Z</time>
      </trkpt>
      <trkpt lat="62.634581497593" lon="17.988140528783">
        <ele>90.6</ele>
        <time>2017-12-25T13:21:17Z</time>
      </trkpt>
      <trkpt lat="62.634557106264" lon="17.98814245662">
        <ele>90.6</ele>
        <time>2017-12-25T13:21:18Z</time>
      </trkpt>
      <trkpt lat="62.634533217849" lon="17.988162740818">
        <ele>90.8</ele>
        <time>2017-12-25T13:21:19Z</time>
      </trkpt>
      <trkpt lat="62.634505641398" lon="17.988166931768">
        <ele>90.8</ele>
        <time>2017-12-25T13:21:20Z</time>
      </trkpt>
      <trkpt lat="62.634485860114" lon="17.988184617577">
        <ele>91</ele>
        <time>2017-12-25T13:21:21Z</time>
      </trkpt>
      <trkpt lat="62.63445853512" lon="17.988185874862">
        <ele>91.2</ele>
        <time>2017-12-25T13:21:22Z</time>
      </trkpt>
      <trkpt lat="62.634433054144" lon="17.988186210138">
        <ele>91.2</ele>
        <time>2017-12-25T13:21:23Z</time>
      </trkpt>
      <trkpt lat="62.634412267032" lon="17.988190065812">
        <ele>91.2</ele>
        <time>2017-12-25T13:21:24Z</time>
      </trkpt>
      <trkpt lat="62.634384942038" lon="17.988189143803">
        <ele>91.2</ele>
        <time>2017-12-25T13:21:25Z</time>
      </trkpt>
      <trkpt lat="62.634358119958" lon="17.988207919259">
        <ele>91.4</ele>
        <time>2017-12-25T13:21:26Z</time>
      </trkpt>
      <trkpt lat="62.634331465516" lon="17.988205153232">
        <ele>91.4</ele>
        <time>2017-12-25T13:21:27Z</time>
      </trkpt>
      <trkpt lat="62.634303972884" lon="17.988222336127">
        <ele>91.4</ele>
        <time>2017-12-25T13:21:28Z</time>
      </trkpt>
      <trkpt lat="62.634272373121" lon="17.988213283675">
        <ele>91.6</ele>
        <time>2017-12-25T13:21:29Z</time>
      </trkpt>
      <trkpt lat="62.634238845521" lon="17.988215965883">
        <ele>91.6</ele>
        <time>2017-12-25T13:21:30Z</time>
      </trkpt>
      <trkpt lat="62.634205653197" lon="17.988215211512">
        <ele>91.8</ele>
        <time>2017-12-25T13:21:31Z</time>
      </trkpt>
      <trkpt lat="62.634172460873" lon="17.988190149631">
        <ele>91.8</ele>
        <time>2017-12-25T13:21:32Z</time>
      </trkpt>
      <trkpt lat="62.634140190558" lon="17.988184030844">
        <ele>91.8</ele>
        <time>2017-12-25T13:21:33Z</time>
      </trkpt>
      <trkpt lat="62.634106411501" lon="17.988161986447">
        <ele>91.8</ele>
        <time>2017-12-25T13:21:34Z</time>
      </trkpt>
      <trkpt lat="62.634077326308" lon="17.988142205163">
        <ele>91.8</ele>
        <time>2017-12-25T13:21:35Z</time>
      </trkpt>
      <trkpt lat="62.634047654382" lon="17.988118652024">
        <ele>91.8</ele>
        <time>2017-12-25T13:21:36Z</time>
      </trkpt>
      <trkpt lat="62.634018317732" lon="17.988090572659">
        <ele>92</ele>
        <time>2017-12-25T13:21:37Z</time>
      </trkpt>
      <trkpt lat="62.633989735453" lon="17.988081520207">
        <ele>92</ele>
        <time>2017-12-25T13:21:38Z</time>
      </trkpt>
      <trkpt lat="62.633959476794" lon="17.988055201041">
        <ele>92.2</ele>
        <time>2017-12-25T13:21:39Z</time>
      </trkpt>
      <trkpt lat="62.63393382818" lon="17.988043131105">
        <ele>92.4</ele>
        <time>2017-12-25T13:21:40Z</time>
      </trkpt>
      <trkpt lat="62.633904407711" lon="17.988022511631">
        <ele>92.4</ele>
        <time>2017-12-25T13:21:41Z</time>
      </trkpt>
      <trkpt lat="62.633877334174" lon="17.987997701207">
        <ele>92.8</ele>
        <time>2017-12-25T13:21:42Z</time>
      </trkpt>
      <trkpt lat="62.633850931189" lon="17.987961910494">
        <ele>93</ele>
        <time>2017-12-25T13:21:43Z</time>
      </trkpt>
      <trkpt lat="62.633825031118" lon="17.987940201373">
        <ele>93.2</ele>
        <time>2017-12-25T13:21:44Z</time>
      </trkpt>
      <trkpt lat="62.633795275373" lon="17.987902147547">
        <ele>93.4</ele>
        <time>2017-12-25T13:21:45Z</time>
      </trkpt>
      <trkpt lat="62.63376199923" lon="17.987874906372">
        <ele>93.4</ele>
        <time>2017-12-25T13:21:46Z</time>
      </trkpt>
      <trkpt lat="62.63373182439" lon="17.987842049324">
        <ele>93.6</ele>
        <time>2017-12-25T13:21:47Z</time>
      </trkpt>
      <trkpt lat="62.633701901007" lon="17.987822770954">
        <ele>93.4</ele>
        <time>2017-12-25T13:21:48Z</time>
      </trkpt>
      <trkpt lat="62.633680359524" lon="17.987796116512">
        <ele>93.4</ele>
        <time>2017-12-25T13:21:49Z</time>
      </trkpt>
      <trkpt lat="62.633655297643" lon="17.987769294432">
        <ele>93.4</ele>
        <time>2017-12-25T13:21:50Z</time>
      </trkpt>
      <trkpt lat="62.633631660685" lon="17.987744986922">
        <ele>93.4</ele>
        <time>2017-12-25T13:21:51Z</time>
      </trkpt>
      <trkpt lat="62.633615818894" lon="17.987726798199">
        <ele>93.6</ele>
        <time>2017-12-25T13:21:52Z</time>
      </trkpt>
      <trkpt lat="62.633587404253" lon="17.987688325278">
        <ele>93.8</ele>
        <time>2017-12-25T13:21:53Z</time>
      </trkpt>
      <trkpt lat="62.633562929105" lon="17.987660748827">
        <ele>94</ele>
        <time>2017-12-25T13:21:54Z</time>
      </trkpt>
      <trkpt lat="62.633537280491" lon="17.987633507652">
        <ele>94</ele>
        <time>2017-12-25T13:21:55Z</time>
      </trkpt>
      <trkpt lat="62.63350802766" lon="17.987591849609">
        <ele>94.4</ele>
        <time>2017-12-25T13:21:56Z</time>
      </trkpt>
      <trkpt lat="62.633479696838" lon="17.98755572362">
        <ele>94.6</ele>
        <time>2017-12-25T13:21:57Z</time>
      </trkpt>
      <trkpt lat="62.633461340477" lon="17.987520603459">
        <ele>94.8</ele>
        <time>2017-12-25T13:21:58Z</time>
      </trkpt>
      <trkpt lat="62.633438122614" lon="17.987482968728">
        <ele>94.8</ele>
        <time>2017-12-25T13:21:59Z</time>
      </trkpt>
      <trkpt lat="62.633418089873" lon="17.987446675101">
        <ele>95</ele>
        <time>2017-12-25T13:22:00Z</time>
      </trkpt>
      <trkpt lat="62.633398811503" lon="17.987408285999">
        <ele>95.2</ele>
        <time>2017-12-25T13:22:01Z</time>
      </trkpt>
      <trkpt lat="62.633380706599" lon="17.987363023739">
        <ele>95.2</ele>
        <time>2017-12-25T13:22:02Z</time>
      </trkpt>
      <trkpt lat="62.633363104609" lon="17.98730426662">
        <ele>95.4</ele>
        <time>2017-12-25T13:22:03Z</time>
      </trkpt>
      <trkpt lat="62.633338964737" lon="17.987260010188">
        <ele>95.8</ele>
        <time>2017-12-25T13:22:04Z</time>
      </trkpt>
      <trkpt lat="62.63331356758" lon="17.987197062119">
        <ele>96</ele>
        <time>2017-12-25T13:22:05Z</time>
      </trkpt>
      <trkpt lat="62.633287416052" lon="17.987091785455">
        <ele>96</ele>
        <time>2017-12-25T13:22:06Z</time>
      </trkpt>
      <trkpt lat="62.633263108542" lon="17.986975109407">
        <ele>95.8</ele>
        <time>2017-12-25T13:22:07Z</time>
      </trkpt>
      <trkpt lat="62.63324399781" lon="17.986860947929">
        <ele>95</ele>
        <time>2017-12-25T13:22:08Z</time>
      </trkpt>
      <trkpt lat="62.633225222354" lon="17.986746451175">
        <ele>94.6</ele>
        <time>2017-12-25T13:22:09Z</time>
      </trkpt>
      <trkpt lat="62.633212733323" lon="17.986642431796">
        <ele>93.6</ele>
        <time>2017-12-25T13:22:10Z</time>
      </trkpt>
      <trkpt lat="62.633204435242" lon="17.986525839567">
        <ele>92.8</ele>
        <time>2017-12-25T13:22:11Z</time>
      </trkpt>
      <trkpt lat="62.633194712238" lon="17.986403882922">
        <ele>92</ele>
        <time>2017-12-25T13:22:12Z</time>
      </trkpt>
      <trkpt lat="62.6331861627" lon="17.986283435019">
        <ele>92</ele>
        <time>2017-12-25T13:22:13Z</time>
      </trkpt>
      <trkpt lat="62.633181217379" lon="17.986153599388">
        <ele>92.2</ele>
        <time>2017-12-25T13:22:14Z</time>
      </trkpt>
      <trkpt lat="62.633181301198" lon="17.986030301639">
        <ele>92.4</ele>
        <time>2017-12-25T13:22:15Z</time>
      </trkpt>
      <trkpt lat="62.633181552655" lon="17.985898370533">
        <ele>92.2</ele>
        <time>2017-12-25T13:22:16Z</time>
      </trkpt>
      <trkpt lat="62.633183312854" lon="17.985773144947">
        <ele>92</ele>
        <time>2017-12-25T13:22:17Z</time>
      </trkpt>
      <trkpt lat="62.633185575967" lon="17.985654373424">
        <ele>91.4</ele>
        <time>2017-12-25T13:22:18Z</time>
      </trkpt>
      <trkpt lat="62.633186246519" lon="17.985530991856">
        <ele>90.6</ele>
        <time>2017-12-25T13:22:19Z</time>
      </trkpt>
      <trkpt lat="62.63318364813" lon="17.985415992188">
        <ele>90</ele>
        <time>2017-12-25T13:22:20Z</time>
      </trkpt>
      <trkpt lat="62.633184570139" lon="17.985294454638">
        <ele>89.8</ele>
        <time>2017-12-25T13:22:21Z</time>
      </trkpt>
      <trkpt lat="62.633197226808" lon="17.985159673686">
        <ele>90.2</ele>
        <time>2017-12-25T13:22:22Z</time>
      </trkpt>
      <trkpt lat="62.633213320056" lon="17.985010475866">
        <ele>90.2</ele>
        <time>2017-12-25T13:22:23Z</time>
      </trkpt>
      <trkpt lat="62.633233604254" lon="17.984862535331">
        <ele>89.8</ele>
        <time>2017-12-25T13:22:24Z</time>
      </trkpt>
      <trkpt lat="62.633257995583" lon="17.984734543718">
        <ele>89.4</ele>
        <time>2017-12-25T13:22:25Z</time>
      </trkpt>
      <trkpt lat="62.633287332233" lon="17.984600600956">
        <ele>88.6</ele>
        <time>2017-12-25T13:22:26Z</time>
      </trkpt>
      <trkpt lat="62.633313232304" lon="17.984483002899">
        <ele>87.6</ele>
        <time>2017-12-25T13:22:27Z</time>
      </trkpt>
      <trkpt lat="62.633335444339" lon="17.984375714579">
        <ele>87</ele>
        <time>2017-12-25T13:22:28Z</time>
      </trkpt>
      <trkpt lat="62.633353381605" lon="17.984276137607">
        <ele>86.6</ele>
        <time>2017-12-25T13:22:29Z</time>
      </trkpt>
      <trkpt lat="62.633366038274" lon="17.984176225359">
        <ele>86.4</ele>
        <time>2017-12-25T13:22:30Z</time>
      </trkpt>
      <trkpt lat="62.633377186201" lon="17.984048569022">
        <ele>86.4</ele>
        <time>2017-12-25T13:22:31Z</time>
      </trkpt>
      <trkpt lat="62.633383556445" lon="17.98394563929">
        <ele>86.4</ele>
        <time>2017-12-25T13:22:32Z</time>
      </trkpt>
      <trkpt lat="62.633396464571" lon="17.983850756182">
        <ele>86.8</ele>
        <time>2017-12-25T13:22:33Z</time>
      </trkpt>
      <trkpt lat="62.633391938345" lon="17.983771211951">
        <ele>87.2</ele>
        <time>2017-12-25T13:22:34Z</time>
      </trkpt>
      <trkpt lat="62.633397135123" lon="17.983701558362">
        <ele>87.6</ele>
        <time>2017-12-25T13:22:35Z</time>
      </trkpt>
      <trkpt lat="62.633411216715" lon="17.983608351634">
        <ele>88</ele>
        <time>2017-12-25T13:22:36Z</time>
      </trkpt>
      <trkpt lat="62.633422364642" lon="17.983524113539">
        <ele>88.2</ele>
        <time>2017-12-25T13:22:37Z</time>
      </trkpt>
      <trkpt lat="62.63343510513" lon="17.983447838249">
        <ele>88.2</ele>
        <time>2017-12-25T13:22:38Z</time>
      </trkpt>
      <trkpt lat="62.633452623301" lon="17.983370892407">
        <ele>88.2</ele>
        <time>2017-12-25T13:22:39Z</time>
      </trkpt>
      <trkpt lat="62.633462011029" lon="17.983310710365">
        <ele>88.2</ele>
        <time>2017-12-25T13:22:40Z</time>
      </trkpt>
      <trkpt lat="62.633477349906" lon="17.983241224414">
        <ele>88.4</ele>
        <time>2017-12-25T13:22:41Z</time>
      </trkpt>
      <trkpt lat="62.633495370991" lon="17.983169726807">
        <ele>88.4</ele>
        <time>2017-12-25T13:22:42Z</time>
      </trkpt>
      <trkpt lat="62.633511883334" lon="17.983091691318">
        <ele>88.4</ele>
        <time>2017-12-25T13:22:43Z</time>
      </trkpt>
      <trkpt lat="62.633525797288" lon="17.983017679141">
        <ele>88.4</ele>
        <time>2017-12-25T13:22:44Z</time>
      </trkpt>
      <trkpt lat="62.63354239345" lon="17.982940062747">
        <ele>88.4</ele>
        <time>2017-12-25T13:22:45Z</time>
      </trkpt>
      <trkpt lat="62.633563515838" lon="17.98286856514">
        <ele>88.4</ele>
        <time>2017-12-25T13:22:46Z</time>
      </trkpt>
      <trkpt lat="62.633582123656" lon="17.982793630954">
        <ele>88.2</ele>
        <time>2017-12-25T13:22:47Z</time>
      </trkpt>
      <trkpt lat="62.633598803637" lon="17.982721546614">
        <ele>88.2</ele>
        <time>2017-12-25T13:22:48Z</time>
      </trkpt>
      <trkpt lat="62.633615399799" lon="17.982647869713">
        <ele>88.4</ele>
        <time>2017-12-25T13:22:49Z</time>
      </trkpt>
      <trkpt lat="62.633625709536" lon="17.982562877247">
        <ele>88.4</ele>
        <time>2017-12-25T13:22:50Z</time>
      </trkpt>
      <trkpt lat="62.633637360377" lon="17.982481237541">
        <ele>88.4</ele>
        <time>2017-12-25T13:22:51Z</time>
      </trkpt>
      <trkpt lat="62.633649765589" lon="17.982403621147">
        <ele>88.4</ele>
        <time>2017-12-25T13:22:52Z</time>
      </trkpt>
      <trkpt lat="62.633656135833" lon="17.982307396935">
        <ele>88.6</ele>
        <time>2017-12-25T13:22:53Z</time>
      </trkpt>
      <trkpt lat="62.633668373407" lon="17.982242521029">
        <ele>88.6</ele>
        <time>2017-12-25T13:22:54Z</time>
      </trkpt>
      <trkpt lat="62.633674073099" lon="17.982171107241">
        <ele>88.6</ele>
        <time>2017-12-25T13:22:55Z</time>
      </trkpt>
      <trkpt lat="62.633676000936" lon="17.98209575396">
        <ele>88.8</ele>
        <time>2017-12-25T13:22:56Z</time>
      </trkpt>
      <trkpt lat="62.63368991489" lon="17.982019311032">
        <ele>88.8</ele>
        <time>2017-12-25T13:22:57Z</time>
      </trkpt>
      <trkpt lat="62.633700727541" lon="17.981939599163">
        <ele>88.8</ele>
        <time>2017-12-25T13:22:58Z</time>
      </trkpt>
      <trkpt lat="62.633701817188" lon="17.981864162063">
        <ele>89</ele>
        <time>2017-12-25T13:22:59Z</time>
      </trkpt>
      <trkpt lat="62.6337058405" lon="17.981787886773">
        <ele>89</ele>
        <time>2017-12-25T13:23:00Z</time>
      </trkpt>
      <trkpt lat="62.633710366726" lon="17.9817068338">
        <ele>89.2</ele>
        <time>2017-12-25T13:23:01Z</time>
      </trkpt>
      <trkpt lat="62.633718078074" lon="17.981624774999">
        <ele>89.2</ele>
        <time>2017-12-25T13:23:02Z</time>
      </trkpt>
      <trkpt lat="62.633721263196" lon="17.981556294876">
        <ele>89.2</ele>
        <time>2017-12-25T13:23:03Z</time>
      </trkpt>
      <trkpt lat="62.633732243485" lon="17.981479181396">
        <ele>89.4</ele>
        <time>2017-12-25T13:23:04Z</time>
      </trkpt>
      <trkpt lat="62.633740625385" lon="17.981394775663">
        <ele>89.4</ele>
        <time>2017-12-25T13:23:05Z</time>
      </trkpt>
      <trkpt lat="62.633748923466" lon="17.981315231432">
        <ele>89.2</ele>
        <time>2017-12-25T13:23:06Z</time>
      </trkpt>
      <trkpt lat="62.633765100533" lon="17.981236776848">
        <ele>89.2</ele>
        <time>2017-12-25T13:23:07Z</time>
      </trkpt>
      <trkpt lat="62.633780774686" lon="17.981160669196">
        <ele>89.2</ele>
        <time>2017-12-25T13:23:08Z</time>
      </trkpt>
      <trkpt lat="62.633794521002" lon="17.981102331172">
        <ele>89</ele>
        <time>2017-12-25T13:23:09Z</time>
      </trkpt>
      <trkpt lat="62.633818074141" lon="17.981054805799">
        <ele>89</ele>
        <time>2017-12-25T13:23:10Z</time>
      </trkpt>
      <trkpt lat="62.633840118538" lon="17.980992360644">
        <ele>89</ele>
        <time>2017-12-25T13:23:11Z</time>
      </trkpt>
      <trkpt lat="62.633863587858" lon="17.980942991253">
        <ele>89.2</ele>
        <time>2017-12-25T13:23:12Z</time>
      </trkpt>
      <trkpt lat="62.633888230644" lon="17.980879959365">
        <ele>89.2</ele>
        <time>2017-12-25T13:23:13Z</time>
      </trkpt>
      <trkpt lat="62.633904742987" lon="17.980823884454">
        <ele>89.4</ele>
        <time>2017-12-25T13:23:14Z</time>
      </trkpt>
      <trkpt lat="62.633928463764" lon="17.980772168131">
        <ele>89.6</ele>
        <time>2017-12-25T13:23:15Z</time>
      </trkpt>
      <trkpt lat="62.633952603636" lon="17.980716512315">
        <ele>89.8</ele>
        <time>2017-12-25T13:23:16Z</time>
      </trkpt>
      <trkpt lat="62.633973306929" lon="17.980660856499">
        <ele>90</ele>
        <time>2017-12-25T13:23:17Z</time>
      </trkpt>
      <trkpt lat="62.633999793733" lon="17.980601009733">
        <ele>90.2</ele>
        <time>2017-12-25T13:23:18Z</time>
      </trkpt>
      <trkpt lat="62.634027956917" lon="17.980537055836">
        <ele>90.2</ele>
        <time>2017-12-25T13:23:19Z</time>
      </trkpt>
      <trkpt lat="62.634048827848" lon="17.980485004237">
        <ele>90.2</ele>
        <time>2017-12-25T13:23:20Z</time>
      </trkpt>
      <trkpt lat="62.634072380987" lon="17.980419290141">
        <ele>90.4</ele>
        <time>2017-12-25T13:23:21Z</time>
      </trkpt>
      <trkpt lat="62.634094341565" lon="17.980350558561">
        <ele>90.6</ele>
        <time>2017-12-25T13:23:22Z</time>
      </trkpt>
      <trkpt lat="62.634111608279" lon="17.9802986746">
        <ele>90.8</ele>
        <time>2017-12-25T13:23:23Z</time>
      </trkpt>
      <trkpt lat="62.634136502522" lon="17.980240504214">
        <ele>90.6</ele>
        <time>2017-12-25T13:23:24Z</time>
      </trkpt>
      <trkpt lat="62.634156451444" lon="17.980184345484">
        <ele>90.6</ele>
        <time>2017-12-25T13:23:25Z</time>
      </trkpt>
      <trkpt lat="62.634181261868" lon="17.980135059912">
        <ele>90.6</ele>
        <time>2017-12-25T13:23:26Z</time>
      </trkpt>
      <trkpt lat="62.634211436708" lon="17.980081080476">
        <ele>90.6</ele>
        <time>2017-12-25T13:23:27Z</time>
      </trkpt>
      <trkpt lat="62.634232056182" lon="17.980012600353">
        <ele>90.4</ele>
        <time>2017-12-25T13:23:28Z</time>
      </trkpt>
      <trkpt lat="62.634255022588" lon="17.979954765243">
        <ele>90.4</ele>
        <time>2017-12-25T13:23:29Z</time>
      </trkpt>
      <trkpt lat="62.63427748608" lon="17.979881423618">
        <ele>90.6</ele>
        <time>2017-12-25T13:23:30Z</time>
      </trkpt>
      <trkpt lat="62.634296848269" lon="17.979804813052">
        <ele>90.6</ele>
        <time>2017-12-25T13:23:31Z</time>
      </trkpt>
      <trkpt lat="62.634317803019" lon="17.979735997653">
        <ele>90.6</ele>
        <time>2017-12-25T13:23:32Z</time>
      </trkpt>
      <trkpt lat="62.634329370041" lon="17.979659890001">
        <ele>90.4</ele>
        <time>2017-12-25T13:23:33Z</time>
      </trkpt>
      <trkpt lat="62.634343032538" lon="17.979585207272">
        <ele>90.6</ele>
        <time>2017-12-25T13:23:34Z</time>
      </trkpt>
      <trkpt lat="62.634361472718" lon="17.979504573394">
        <ele>90.6</ele>
        <time>2017-12-25T13:23:35Z</time>
      </trkpt>
      <trkpt lat="62.634376141043" lon="17.979423352783">
        <ele>90.6</ele>
        <time>2017-12-25T13:23:36Z</time>
      </trkpt>
      <trkpt lat="62.634381840735" lon="17.97934481438">
        <ele>90.6</ele>
        <time>2017-12-25T13:23:37Z</time>
      </trkpt>
      <trkpt lat="62.634397682526" lon="17.979268790547">
        <ele>90.4</ele>
        <time>2017-12-25T13:23:38Z</time>
      </trkpt>
      <trkpt lat="62.634412350851" lon="17.9792006457">
        <ele>90.4</ele>
        <time>2017-12-25T13:23:39Z</time>
      </trkpt>
      <trkpt lat="62.634421068027" lon="17.97914783973">
        <ele>90.2</ele>
        <time>2017-12-25T13:23:40Z</time>
      </trkpt>
      <trkpt lat="62.634438921474" lon="17.979065194196">
        <ele>90.2</ele>
        <time>2017-12-25T13:23:41Z</time>
      </trkpt>
      <trkpt lat="62.634455266179" lon="17.978987326345">
        <ele>90.4</ele>
        <time>2017-12-25T13:23:42Z</time>
      </trkpt>
      <trkpt lat="62.634471862341" lon="17.978908201209">
        <ele>90.2</ele>
        <time>2017-12-25T13:23:43Z</time>
      </trkpt>
      <trkpt lat="62.634505222303" lon="17.978774258447">
        <ele>90.4</ele>
        <time>2017-12-25T13:23:45Z</time>
      </trkpt>
      <trkpt lat="62.634517795153" lon="17.978705862143">
        <ele>90.2</ele>
        <time>2017-12-25T13:23:46Z</time>
      </trkpt>
      <trkpt lat="62.634531038555" lon="17.978622629876">
        <ele>90.2</ele>
        <time>2017-12-25T13:23:47Z</time>
      </trkpt>
      <trkpt lat="62.634545371604" lon="17.978546522224">
        <ele>90.4</ele>
        <time>2017-12-25T13:23:48Z</time>
      </trkpt>
      <trkpt lat="62.634555262246" lon="17.978470079296">
        <ele>90.2</ele>
        <time>2017-12-25T13:23:49Z</time>
      </trkpt>
      <trkpt lat="62.634568086553" lon="17.978381985527">
        <ele>90.4</ele>
        <time>2017-12-25T13:23:50Z</time>
      </trkpt>
      <trkpt lat="62.634584179801" lon="17.97828198946">
        <ele>90.4</ele>
        <time>2017-12-25T13:23:51Z</time>
      </trkpt>
      <trkpt lat="62.63459851285" lon="17.978199930659">
        <ele>90.2</ele>
        <time>2017-12-25T13:23:52Z</time>
      </trkpt>
      <trkpt lat="62.634614019365" lon="17.978097168565">
        <ele>90</ele>
        <time>2017-12-25T13:23:53Z</time>
      </trkpt>
      <trkpt lat="62.634626592215" lon="17.978008655701">
        <ele>89.8</ele>
        <time>2017-12-25T13:23:54Z</time>
      </trkpt>
      <trkpt lat="62.634642182549" lon="17.977910922747">
        <ele>89.8</ele>
        <time>2017-12-25T13:23:55Z</time>
      </trkpt>
      <trkpt lat="62.634657269969" lon="17.977806148997">
        <ele>89.6</ele>
        <time>2017-12-25T13:23:56Z</time>
      </trkpt>
      <trkpt lat="62.634665232774" lon="17.977707661672">
        <ele>89.4</ele>
        <time>2017-12-25T13:23:57Z</time>
      </trkpt>
      <trkpt lat="62.634679649642" lon="17.977617640066">
        <ele>89.4</ele>
        <time>2017-12-25T13:23:58Z</time>
      </trkpt>
      <trkpt lat="62.634695072338" lon="17.977525774442">
        <ele>89.2</ele>
        <time>2017-12-25T13:23:59Z</time>
      </trkpt>
      <trkpt lat="62.634708483378" lon="17.977449247695">
        <ele>89</ele>
        <time>2017-12-25T13:24:00Z</time>
      </trkpt>
      <trkpt lat="62.634724157531" lon="17.977358723175">
        <ele>88.8</ele>
        <time>2017-12-25T13:24:01Z</time>
      </trkpt>
      <trkpt lat="62.634744441729" lon="17.97727448508">
        <ele>88.8</ele>
        <time>2017-12-25T13:24:02Z</time>
      </trkpt>
      <trkpt lat="62.634751566344" lon="17.977217823436">
        <ele>88.6</ele>
        <time>2017-12-25T13:24:03Z</time>
      </trkpt>
      <trkpt lat="62.634763217185" lon="17.977147331657">
        <ele>88.6</ele>
        <time>2017-12-25T13:24:04Z</time>
      </trkpt>
      <trkpt lat="62.634777801691" lon="17.977076336964">
        <ele>88.6</ele>
        <time>2017-12-25T13:24:05Z</time>
      </trkpt>
      <trkpt lat="62.634791967102" lon="17.977001654235">
        <ele>88.4</ele>
        <time>2017-12-25T13:24:06Z</time>
      </trkpt>
      <trkpt lat="62.634812502757" lon="17.976915488303">
        <ele>88.4</ele>
        <time>2017-12-25T13:24:07Z</time>
      </trkpt>
      <trkpt lat="62.634830440023" lon="17.976828735638">
        <ele>88.4</ele>
        <time>2017-12-25T13:24:08Z</time>
      </trkpt>
      <trkpt lat="62.634841755588" lon="17.97675648366">
        <ele>88.4</ele>
        <time>2017-12-25T13:24:09Z</time>
      </trkpt>
      <trkpt lat="62.63485667537" lon="17.976680627465">
        <ele>88.4</ele>
        <time>2017-12-25T13:24:10Z</time>
      </trkpt>
      <trkpt lat="62.634876289016" lon="17.976578452104">
        <ele>88.4</ele>
        <time>2017-12-25T13:24:11Z</time>
      </trkpt>
      <trkpt lat="62.634892382264" lon="17.976498991692">
        <ele>88.4</ele>
        <time>2017-12-25T13:24:12Z</time>
      </trkpt>
      <trkpt lat="62.634910906263" lon="17.976416849072">
        <ele>88.2</ele>
        <time>2017-12-25T13:24:13Z</time>
      </trkpt>
      <trkpt lat="62.634932363927" lon="17.976331102235">
        <ele>88</ele>
        <time>2017-12-25T13:24:14Z</time>
      </trkpt>
      <trkpt lat="62.634944769139" lon="17.976265974872">
        <ele>88</ele>
        <time>2017-12-25T13:24:15Z</time>
      </trkpt>
      <trkpt lat="62.63496731645" lon="17.976176707637">
        <ele>88</ele>
        <time>2017-12-25T13:24:16Z</time>
      </trkpt>
      <trkpt lat="62.634989696123" lon="17.976083920004">
        <ele>87.8</ele>
        <time>2017-12-25T13:24:17Z</time>
      </trkpt>
      <trkpt lat="62.635006879018" lon="17.976017116261">
        <ele>87.8</ele>
        <time>2017-12-25T13:24:18Z</time>
      </trkpt>
      <trkpt lat="62.635025570655" lon="17.975927010836">
        <ele>87.6</ele>
        <time>2017-12-25T13:24:19Z</time>
      </trkpt>
      <trkpt lat="62.635039316971" lon="17.975847801881">
        <ele>87.8</ele>
        <time>2017-12-25T13:24:20Z</time>
      </trkpt>
      <trkpt lat="62.635056248409" lon="17.975752080583">
        <ele>87.8</ele>
        <time>2017-12-25T13:24:21Z</time>
      </trkpt>
      <trkpt lat="62.635073347485" lon="17.975654515267">
        <ele>87.6</ele>
        <time>2017-12-25T13:24:22Z</time>
      </trkpt>
      <trkpt lat="62.635089105457" lon="17.975563487833">
        <ele>87.4</ele>
        <time>2017-12-25T13:24:23Z</time>
      </trkpt>
      <trkpt lat="62.635102432678" lon="17.975476399892">
        <ele>87.2</ele>
        <time>2017-12-25T13:24:24Z</time>
      </trkpt>
      <trkpt lat="62.63511232332" lon="17.975395933652">
        <ele>87</ele>
        <time>2017-12-25T13:24:25Z</time>
      </trkpt>
      <trkpt lat="62.635120621401" lon="17.9753030622">
        <ele>86.8</ele>
        <time>2017-12-25T13:24:26Z</time>
      </trkpt>
      <trkpt lat="62.635128751844" lon="17.975205077789">
        <ele>86.8</ele>
        <time>2017-12-25T13:24:27Z</time>
      </trkpt>
      <trkpt lat="62.635131685509" lon="17.975115391459">
        <ele>86.8</ele>
        <time>2017-12-25T13:24:28Z</time>
      </trkpt>
      <trkpt lat="62.635124141799" lon="17.975011791175">
        <ele>86.6</ele>
        <time>2017-12-25T13:24:29Z</time>
      </trkpt>
      <trkpt lat="62.635105701619" lon="17.974913220031">
        <ele>86.2</ele>
        <time>2017-12-25T13:24:30Z</time>
      </trkpt>
      <trkpt lat="62.635079885367" lon="17.974817247276">
        <ele>85.8</ele>
        <time>2017-12-25T13:24:31Z</time>
      </trkpt>
      <trkpt lat="62.635050883993" lon="17.974721190702">
        <ele>85.2</ele>
        <time>2017-12-25T13:24:32Z</time>
      </trkpt>
      <trkpt lat="62.635021966438" lon="17.974644999231">
        <ele>85</ele>
        <time>2017-12-25T13:24:33Z</time>
      </trkpt>
      <trkpt lat="62.634993048883" lon="17.97455120577">
        <ele>84.8</ele>
        <time>2017-12-25T13:24:34Z</time>
      </trkpt>
      <trkpt lat="62.634967651726" lon="17.974460429793">
        <ele>84.6</ele>
        <time>2017-12-25T13:24:35Z</time>
      </trkpt>
      <trkpt lat="62.634933956488" lon="17.974355991319">
        <ele>84.4</ele>
        <time>2017-12-25T13:24:36Z</time>
      </trkpt>
      <trkpt lat="62.634910068073" lon="17.974263455143">
        <ele>84.2</ele>
        <time>2017-12-25T13:24:37Z</time>
      </trkpt>
      <trkpt lat="62.634883245993" lon="17.974182234532">
        <ele>84</ele>
        <time>2017-12-25T13:24:38Z</time>
      </trkpt>
      <trkpt lat="62.634868661487" lon="17.974110820744">
        <ele>83.8</ele>
        <time>2017-12-25T13:24:39Z</time>
      </trkpt>
      <trkpt lat="62.634856172456" lon="17.974027504658">
        <ele>83.4</ele>
        <time>2017-12-25T13:24:40Z</time>
      </trkpt>
      <trkpt lat="62.634844353977" lon="17.973925496935">
        <ele>83.4</ele>
        <time>2017-12-25T13:24:41Z</time>
      </trkpt>
      <trkpt lat="62.634829098919" lon="17.973855759527">
        <ele>83.2</ele>
        <time>2017-12-25T13:24:42Z</time>
      </trkpt>
      <trkpt lat="62.634811161653" lon="17.973790464526">
        <ele>83.2</ele>
        <time>2017-12-25T13:24:43Z</time>
      </trkpt>
      <trkpt lat="62.634794062577" lon="17.973704717689">
        <ele>83</ele>
        <time>2017-12-25T13:24:44Z</time>
      </trkpt>
      <trkpt lat="62.634766905221" lon="17.973642440172">
        <ele>83.2</ele>
        <time>2017-12-25T13:24:45Z</time>
      </trkpt>
      <trkpt lat="62.634751985439" lon="17.973556525697">
        <ele>83</ele>
        <time>2017-12-25T13:24:46Z</time>
      </trkpt>
      <trkpt lat="62.634730695413" lon="17.97347664619">
        <ele>83</ele>
        <time>2017-12-25T13:24:47Z</time>
      </trkpt>
      <trkpt lat="62.634722481151" lon="17.973396515226">
        <ele>83</ele>
        <time>2017-12-25T13:24:48Z</time>
      </trkpt>
      <trkpt lat="62.634722313513" lon="17.973291490019">
        <ele>82.8</ele>
        <time>2017-12-25T13:24:49Z</time>
      </trkpt>
      <trkpt lat="62.634722313513" lon="17.973200965499">
        <ele>82.6</ele>
        <time>2017-12-25T13:24:50Z</time>
      </trkpt>
      <trkpt lat="62.63472675592" lon="17.973111865902">
        <ele>82.4</ele>
        <time>2017-12-25T13:24:51Z</time>
      </trkpt>
      <trkpt lat="62.634736646562" lon="17.973019245907">
        <ele>82.4</ele>
        <time>2017-12-25T13:24:52Z</time>
      </trkpt>
      <trkpt lat="62.634743100625" lon="17.972928889025">
        <ele>82.4</ele>
        <time>2017-12-25T13:24:53Z</time>
      </trkpt>
      <trkpt lat="62.634760702615" lon="17.972819253773">
        <ele>82.2</ele>
        <time>2017-12-25T13:24:54Z</time>
      </trkpt>
      <trkpt lat="62.634781405908" lon="17.972746750338">
        <ele>82</ele>
        <time>2017-12-25T13:24:55Z</time>
      </trkpt>
      <trkpt lat="62.634802947391" lon="17.972661757872">
        <ele>82</ele>
        <time>2017-12-25T13:24:56Z</time>
      </trkpt>
      <trkpt lat="62.634827925453" lon="17.972593696844">
        <ele>81.8</ele>
        <time>2017-12-25T13:24:57Z</time>
      </trkpt>
      <trkpt lat="62.634849718393" lon="17.972518930296">
        <ele>81.6</ele>
        <time>2017-12-25T13:24:58Z</time>
      </trkpt>
      <trkpt lat="62.634874947912" lon="17.972453551476">
        <ele>81.6</ele>
        <time>2017-12-25T13:24:59Z</time>
      </trkpt>
      <trkpt lat="62.634898333413" lon="17.972390687226">
        <ele>81.6</ele>
        <time>2017-12-25T13:25:00Z</time>
      </trkpt>
      <trkpt lat="62.634927837701" lon="17.972324637854">
        <ele>81.4</ele>
        <time>2017-12-25T13:25:01Z</time>
      </trkpt>
      <trkpt lat="62.634953570134" lon="17.972259342853">
        <ele>81.2</ele>
        <time>2017-12-25T13:25:02Z</time>
      </trkpt>
      <trkpt lat="62.634976285083" lon="17.972199831363">
        <ele>81</ele>
        <time>2017-12-25T13:25:03Z</time>
      </trkpt>
      <trkpt lat="62.634998748575" lon="17.972114922716">
        <ele>80.8</ele>
        <time>2017-12-25T13:25:04Z</time>
      </trkpt>
      <trkpt lat="62.635019368049" lon="17.972045772041">
        <ele>80.8</ele>
        <time>2017-12-25T13:25:05Z</time>
      </trkpt>
      <trkpt lat="62.635045351939" lon="17.971952397675">
        <ele>80.6</ele>
        <time>2017-12-25T13:25:06Z</time>
      </trkpt>
      <trkpt lat="62.635067983069" lon="17.971848965029">
        <ele>80.6</ele>
        <time>2017-12-25T13:25:07Z</time>
      </trkpt>
      <trkpt lat="62.635089943647" lon="17.971737485759">
        <ele>80.4</ele>
        <time>2017-12-25T13:25:08Z</time>
      </trkpt>
      <trkpt lat="62.635109389655" lon="17.97162173172">
        <ele>80.2</ele>
        <time>2017-12-25T13:25:09Z</time>
      </trkpt>
      <trkpt lat="62.635123135971" lon="17.971516538875">
        <ele>79.8</ele>
        <time>2017-12-25T13:25:10Z</time>
      </trkpt>
      <trkpt lat="62.635138893943" lon="17.971392235298">
        <ele>79.4</ele>
        <time>2017-12-25T13:25:11Z</time>
      </trkpt>
      <trkpt lat="62.635153310811" lon="17.971276313621">
        <ele>78.6</ele>
        <time>2017-12-25T13:25:12Z</time>
      </trkpt>
      <trkpt lat="62.635165716023" lon="17.971162738876">
        <ele>78</ele>
        <time>2017-12-25T13:25:13Z</time>
      </trkpt>
      <trkpt lat="62.635178875606" lon="17.971050169959">
        <ele>77.6</ele>
        <time>2017-12-25T13:25:14Z</time>
      </trkpt>
      <trkpt lat="62.635190191171" lon="17.970946821132">
        <ele>77.4</ele>
        <time>2017-12-25T13:25:15Z</time>
      </trkpt>
      <trkpt lat="62.635203518392" lon="17.970843556124">
        <ele>77</ele>
        <time>2017-12-25T13:25:16Z</time>
      </trkpt>
      <trkpt lat="62.635216510337" lon="17.970738530917">
        <ele>76.6</ele>
        <time>2017-12-25T13:25:17Z</time>
      </trkpt>
      <trkpt lat="62.635228244997" lon="17.970641971429">
        <ele>76.2</ele>
        <time>2017-12-25T13:25:18Z</time>
      </trkpt>
      <trkpt lat="62.635240650209" lon="17.970534850747">
        <ele>76</ele>
        <time>2017-12-25T13:25:19Z</time>
      </trkpt>
      <trkpt lat="62.635251630498" lon="17.970437955983">
        <ele>75.6</ele>
        <time>2017-12-25T13:25:20Z</time>
      </trkpt>
      <trkpt lat="62.635263951891" lon="17.970333098414">
        <ele>75.4</ele>
        <time>2017-12-25T13:25:21Z</time>
      </trkpt>
      <trkpt lat="62.635276105646" lon="17.970236119831">
        <ele>75.2</ele>
        <time>2017-12-25T13:25:22Z</time>
      </trkpt>
      <trkpt lat="62.635289935781" lon="17.970131681357">
        <ele>75</ele>
        <time>2017-12-25T13:25:23Z</time>
      </trkpt>
      <trkpt lat="62.635307034857" lon="17.970026069417">
        <ele>74.6</ele>
        <time>2017-12-25T13:25:24Z</time>
      </trkpt>
      <trkpt lat="62.63532606177" lon="17.969929677567">
        <ele>74.2</ele>
        <time>2017-12-25T13:25:25Z</time>
      </trkpt>
      <trkpt lat="62.635351458927" lon="17.969821634876">
        <ele>73.8</ele>
        <time>2017-12-25T13:25:26Z</time>
      </trkpt>
      <trkpt lat="62.635375766437" lon="17.969723734284">
        <ele>73.2</ele>
        <time>2017-12-25T13:25:27Z</time>
      </trkpt>
      <trkpt lat="62.635398481386" lon="17.969627929167">
        <ele>72.8</ele>
        <time>2017-12-25T13:25:28Z</time>
      </trkpt>
      <trkpt lat="62.635425303466" lon="17.969526843453">
        <ele>72.2</ele>
        <time>2017-12-25T13:25:29Z</time>
      </trkpt>
      <trkpt lat="62.635446928768" lon="17.969434726372">
        <ele>71.8</ele>
        <time>2017-12-25T13:25:30Z</time>
      </trkpt>
      <trkpt lat="62.635472577382" lon="17.969329617346">
        <ele>71.4</ele>
        <time>2017-12-25T13:25:31Z</time>
      </trkpt>
      <trkpt lat="62.635497974539" lon="17.96922869927">
        <ele>71</ele>
        <time>2017-12-25T13:25:32Z</time>
      </trkpt>
      <trkpt lat="62.635521779135" lon="17.969129206117">
        <ele>70.4</ele>
        <time>2017-12-25T13:25:33Z</time>
      </trkpt>
      <trkpt lat="62.635548936491" lon="17.969029042412">
        <ele>69.8</ele>
        <time>2017-12-25T13:25:34Z</time>
      </trkpt>
      <trkpt lat="62.635576261485" lon="17.96892862725">
        <ele>69.4</ele>
        <time>2017-12-25T13:25:35Z</time>
      </trkpt>
      <trkpt lat="62.635605765773" lon="17.968826200432">
        <ele>68.8</ele>
        <time>2017-12-25T13:25:36Z</time>
      </trkpt>
      <trkpt lat="62.635631498206" lon="17.968733999532">
        <ele>68.2</ele>
        <time>2017-12-25T13:25:37Z</time>
      </trkpt>
      <trkpt lat="62.635657482096" lon="17.968649342342">
        <ele>67.8</ele>
        <time>2017-12-25T13:25:38Z</time>
      </trkpt>
      <trkpt lat="62.635688578945" lon="17.968562422039">
        <ele>67.2</ele>
        <time>2017-12-25T13:25:39Z</time>
      </trkpt>
      <trkpt lat="62.635723196192" lon="17.968495031563">
        <ele>67</ele>
        <time>2017-12-25T13:25:40Z</time>
      </trkpt>
      <trkpt lat="62.635770637746" lon="17.968430239476">
        <ele>66.6</ele>
        <time>2017-12-25T13:25:41Z</time>
      </trkpt>
      <trkpt lat="62.635817157291" lon="17.9683879947">
        <ele>66.4</ele>
        <time>2017-12-25T13:25:42Z</time>
      </trkpt>
      <trkpt lat="62.635867113415" lon="17.968355640566">
        <ele>66.2</ele>
        <time>2017-12-25T13:25:43Z</time>
      </trkpt>
      <trkpt lat="62.635917069539" lon="17.968343067716">
        <ele>66</ele>
        <time>2017-12-25T13:25:44Z</time>
      </trkpt>
      <trkpt lat="62.635959984867" lon="17.968345163191">
        <ele>65.6</ele>
        <time>2017-12-25T13:25:45Z</time>
      </trkpt>
      <trkpt lat="62.635999882711" lon="17.968352455444">
        <ele>65.2</ele>
        <time>2017-12-25T13:25:46Z</time>
      </trkpt>
      <trkpt lat="62.636030728103" lon="17.968353880367">
        <ele>64.8</ele>
        <time>2017-12-25T13:25:47Z</time>
      </trkpt>
      <trkpt lat="62.636045731704" lon="17.968334182902">
        <ele>64.6</ele>
        <time>2017-12-25T13:25:48Z</time>
      </trkpt>
      <trkpt lat="62.636046737532" lon="17.968293782144">
        <ele>64.6</ele>
        <time>2017-12-25T13:25:49Z</time>
      </trkpt>
      <trkpt lat="62.63603852327" lon="17.968249860988">
        <ele>64.6</ele>
        <time>2017-12-25T13:25:50Z</time>
      </trkpt>
      <trkpt lat="62.636021675651" lon="17.968197641751">
        <ele>64.8</ele>
        <time>2017-12-25T13:25:51Z</time>
      </trkpt>
      <trkpt lat="62.636001810548" lon="17.968154642604">
        <ele>65</ele>
        <time>2017-12-25T13:25:52Z</time>
      </trkpt>
      <trkpt lat="62.635983621825" lon="17.968102004272">
        <ele>65</ele>
        <time>2017-12-25T13:25:53Z</time>
      </trkpt>
      <trkpt lat="62.635966606568" lon="17.968049114483">
        <ele>65</ele>
        <time>2017-12-25T13:25:54Z</time>
      </trkpt>
      <trkpt lat="62.635951183872" lon="17.968002762576">
        <ele>64.8</ele>
        <time>2017-12-25T13:25:55Z</time>
      </trkpt>
      <trkpt lat="62.635937353737" lon="17.967950208063">
        <ele>64.6</ele>
        <time>2017-12-25T13:25:56Z</time>
      </trkpt>
      <trkpt lat="62.635922182498" lon="17.967888768736">
        <ele>64.6</ele>
        <time>2017-12-25T13:25:57Z</time>
      </trkpt>
      <trkpt lat="62.635909944924" lon="17.967833615834">
        <ele>64.6</ele>
        <time>2017-12-25T13:25:58Z</time>
      </trkpt>
      <trkpt lat="62.635898294083" lon="17.967775361629">
        <ele>64.4</ele>
        <time>2017-12-25T13:25:59Z</time>
      </trkpt>
      <trkpt lat="62.635888068165" lon="17.967735463785">
        <ele>64.4</ele>
        <time>2017-12-25T13:26:00Z</time>
      </trkpt>
      <trkpt lat="62.635875579134" lon="17.967704786031">
        <ele>64.4</ele>
        <time>2017-12-25T13:26:01Z</time>
      </trkpt>
      <trkpt lat="62.635866442863" lon="17.967684082738">
        <ele>64.2</ele>
        <time>2017-12-25T13:26:02Z</time>
      </trkpt>
      <trkpt lat="62.6358599888" lon="17.967672096621">
        <ele>64.2</ele>
        <time>2017-12-25T13:26:03Z</time>
      </trkpt>
      <trkpt lat="62.635858647696" lon="17.96766212216">
        <ele>64</ele>
        <time>2017-12-25T13:26:04Z</time>
      </trkpt>
      <trkpt lat="62.635855294936" lon="17.96766044578">
        <ele>64</ele>
        <time>2017-12-25T13:26:05Z</time>
      </trkpt>
      <trkpt lat="62.63575437686" lon="17.967212768501">
        <ele>60.6</ele>
        <time>2017-12-25T13:28:04Z</time>
      </trkpt>
      <trkpt lat="62.635741049639" lon="17.967166584232">
        <ele>60.4</ele>
        <time>2017-12-25T13:28:05Z</time>
      </trkpt>
      <trkpt lat="62.635721855088" lon="17.967103468525">
        <ele>60.4</ele>
        <time>2017-12-25T13:28:06Z</time>
      </trkpt>
      <trkpt lat="62.635706432392" lon="17.967055775514">
        <ele>60.2</ele>
        <time>2017-12-25T13:28:07Z</time>
      </trkpt>
      <trkpt lat="62.635690339144" lon="17.967009842702">
        <ele>60</ele>
        <time>2017-12-25T13:28:08Z</time>
      </trkpt>
      <trkpt lat="62.635673826801" lon="17.966963826071">
        <ele>60</ele>
        <time>2017-12-25T13:28:09Z</time>
      </trkpt>
      <trkpt lat="62.635654967526" lon="17.966913869947">
        <ele>59.8</ele>
        <time>2017-12-25T13:28:10Z</time>
      </trkpt>
      <trkpt lat="62.635632168758" lon="17.966851676249">
        <ele>59.8</ele>
        <time>2017-12-25T13:28:11Z</time>
      </trkpt>
      <trkpt lat="62.635609453809" lon="17.966788560542">
        <ele>59.6</ele>
        <time>2017-12-25T13:28:12Z</time>
      </trkpt>
      <trkpt lat="62.635584391928" lon="17.966722008256">
        <ele>59.4</ele>
        <time>2017-12-25T13:28:13Z</time>
      </trkpt>
      <trkpt lat="62.63555991678" lon="17.966650007735">
        <ele>59.2</ele>
        <time>2017-12-25T13:28:14Z</time>
      </trkpt>
      <trkpt lat="62.635535944546" lon="17.966580605603">
        <ele>59.2</ele>
        <time>2017-12-25T13:28:15Z</time>
      </trkpt>
      <trkpt lat="62.635508284276" lon="17.966500977553">
        <ele>59</ele>
        <time>2017-12-25T13:28:16Z</time>
      </trkpt>
      <trkpt lat="62.635478277074" lon="17.966413470517">
        <ele>58.8</ele>
        <time>2017-12-25T13:28:17Z</time>
      </trkpt>
      <trkpt lat="62.635451203537" lon="17.966333674829">
        <ele>58.6</ele>
        <time>2017-12-25T13:28:18Z</time>
      </trkpt>
      <trkpt lat="62.635428153312" lon="17.966260417023">
        <ele>58.2</ele>
        <time>2017-12-25T13:28:19Z</time>
      </trkpt>
      <trkpt lat="62.635406863286" lon="17.966184560828">
        <ele>58</ele>
        <time>2017-12-25T13:28:20Z</time>
      </trkpt>
      <trkpt lat="62.635392194961" lon="17.966112392669">
        <ele>57.8</ele>
        <time>2017-12-25T13:28:21Z</time>
      </trkpt>
      <trkpt lat="62.635376772265" lon="17.966045086012">
        <ele>57.6</ele>
        <time>2017-12-25T13:28:22Z</time>
      </trkpt>
      <trkpt lat="62.635354895506" lon="17.965964619772">
        <ele>57.4</ele>
        <time>2017-12-25T13:28:23Z</time>
      </trkpt>
      <trkpt lat="62.635341652104" lon="17.965892786889">
        <ele>57.4</ele>
        <time>2017-12-25T13:28:24Z</time>
      </trkpt>
      <trkpt lat="62.635328324883" lon="17.965821876015">
        <ele>57.2</ele>
        <time>2017-12-25T13:28:25Z</time>
      </trkpt>
      <trkpt lat="62.635315500576" lon="17.965740655404">
        <ele>57</ele>
        <time>2017-12-25T13:28:26Z</time>
      </trkpt>
      <trkpt lat="62.635310387617" lon="17.965666559408">
        <ele>57</ele>
        <time>2017-12-25T13:28:27Z</time>
      </trkpt>
      <trkpt lat="62.635304017373" lon="17.965594139792">
        <ele>56.8</ele>
        <time>2017-12-25T13:28:28Z</time>
      </trkpt>
      <trkpt lat="62.635297144215" lon="17.965512835362">
        <ele>56.6</ele>
        <time>2017-12-25T13:28:29Z</time>
      </trkpt>
      <trkpt lat="62.635288678496" lon="17.96544008047">
        <ele>56.4</ele>
        <time>2017-12-25T13:28:30Z</time>
      </trkpt>
      <trkpt lat="62.635277782026" lon="17.965353830719">
        <ele>56.2</ele>
        <time>2017-12-25T13:28:31Z</time>
      </trkpt>
      <trkpt lat="62.63526990304" lon="17.965268419158">
        <ele>56</ele>
        <time>2017-12-25T13:28:32Z</time>
      </trkpt>
      <trkpt lat="62.635259509484" lon="17.965181415036">
        <ele>56</ele>
        <time>2017-12-25T13:28:33Z</time>
      </trkpt>
      <trkpt lat="62.635252636326" lon="17.96510564266">
        <ele>55.8</ele>
        <time>2017-12-25T13:28:34Z</time>
      </trkpt>
      <trkpt lat="62.635245260254" lon="17.965023835316">
        <ele>55.6</ele>
        <time>2017-12-25T13:28:35Z</time>
      </trkpt>
      <trkpt lat="62.635238303277" lon="17.964948482035">
        <ele>55.2</ele>
        <time>2017-12-25T13:28:36Z</time>
      </trkpt>
      <trkpt lat="62.635235201974" lon="17.964879918093">
        <ele>55.2</ele>
        <time>2017-12-25T13:28:37Z</time>
      </trkpt>
      <trkpt lat="62.635234447603" lon="17.964839433516">
        <ele>55</ele>
        <time>2017-12-25T13:28:38Z</time>
      </trkpt>
      <trkpt lat="62.635236291621" lon="17.964804061898">
        <ele>54.8</ele>
        <time>2017-12-25T13:28:39Z</time>
      </trkpt>
      <trkpt lat="62.635242997141" lon="17.964784867347">
        <ele>54.4</ele>
        <time>2017-12-25T13:28:40Z</time>
      </trkpt>
      <trkpt lat="62.635257916923" lon="17.964746729702">
        <ele>54.4</ele>
        <time>2017-12-25T13:28:41Z</time>
      </trkpt>
      <trkpt lat="62.635290187238" lon="17.964705239297">
        <ele>54.4</ele>
        <time>2017-12-25T13:28:42Z</time>
      </trkpt>
      <trkpt lat="62.635334192213" lon="17.964674142448">
        <ele>54.2</ele>
        <time>2017-12-25T13:28:43Z</time>
      </trkpt>
      <trkpt lat="62.635398649024" lon="17.964641033943">
        <ele>54.2</ele>
        <time>2017-12-25T13:28:44Z</time>
      </trkpt>
      <trkpt lat="62.63546017217" lon="17.964608093076">
        <ele>54.2</ele>
        <time>2017-12-25T13:28:45Z</time>
      </trkpt>
      <trkpt lat="62.635534603442" lon="17.964574733114">
        <ele>54.4</ele>
        <time>2017-12-25T13:28:46Z</time>
      </trkpt>
      <trkpt lat="62.635628396903" lon="17.964524357895">
        <ele>54.4</ele>
        <time>2017-12-25T13:28:47Z</time>
      </trkpt>
      <trkpt lat="62.635694781551" lon="17.964481358748">
        <ele>54.4</ele>
        <time>2017-12-25T13:28:48Z</time>
      </trkpt>
      <trkpt lat="62.635760411828" lon="17.964436599402">
        <ele>54.2</ele>
        <time>2017-12-25T13:28:49Z</time>
      </trkpt>
    </trkseg>
  </trk>
</gpx>